Time,TemperatureF,DewpointF,PressureIn,WindDirection,WindDirectionDegrees,WindSpeedMPH,WindSpeedGustMPH,Humidity,HourlyPrecipIn,Conditions,Clouds,dailyrainin,SoftwareType,DateUTC
2013-03-06 00:00:00,29.3,26.7,30.08,NE,36,0.0,2.0,90,0.00,,,0.00,Wunderground v.1.15,2013-03-06 05:00:00,
2013-03-06 00:02:00,29.3,27.0,30.08,NNW,346,0.0,1.0,91,0.00,,,0.00,Wunderground v.1.15,2013-03-06 05:02:00,
2013-03-06 00:05:00,29.4,27.1,30.07,NE,39,8.0,8.0,91,0.00,,,0.00,Wunderground v.1.15,2013-03-06 05:05:00,
2013-03-06 00:06:00,29.5,27.2,30.08,NNE,13,0.0,8.0,91,0.00,,,0.00,Wunderground v.1.15,2013-03-06 05:06:00,
2013-03-06 00:07:00,29.6,27.6,30.08,NE,56,0.0,8.0,92,0.00,,,0.00,Wunderground v.1.15,2013-03-06 05:07:00,
2013-03-06 00:08:00,29.6,27.6,30.07,NE,39,2.0,8.0,92,0.00,,,0.00,Wunderground v.1.15,2013-03-06 05:08:00,
2013-03-06 00:12:00,29.8,28.0,30.07,NE,43,6.0,6.0,93,0.00,,,0.00,Wunderground v.1.15,2013-03-06 05:12:00,
2013-03-06 00:13:00,29.8,28.0,30.07,East,86,1.0,6.0,93,0.00,,,0.00,Wunderground v.1.15,2013-03-06 05:13:00,
2013-03-06 00:14:00,29.8,28.0,30.07,NNE,22,3.0,6.0,93,0.00,,,0.00,Wunderground v.1.15,2013-03-06 05:14:00,
2013-03-06 00:15:00,29.9,28.1,30.07,ENE,65,3.0,6.0,93,0.00,,,0.00,Wunderground v.1.15,2013-03-06 05:15:00,
2013-03-06 00:17:00,29.9,28.1,30.07,NNE,20,1.0,6.0,93,0.00,,,0.00,Wunderground v.1.15,2013-03-06 05:17:00,
2013-03-06 00:21:00,29.9,28.1,30.07,East,87,0.0,2.0,93,0.00,,,0.00,Wunderground v.1.15,2013-03-06 05:21:00,
2013-03-06 00:22:00,29.9,28.1,30.07,East,87,0.0,2.0,93,0.00,,,0.00,Wunderground v.1.15,2013-03-06 05:22:00,
2013-03-06 00:23:00,29.8,28.0,30.07,East,87,1.0,2.0,93,0.00,,,0.00,Wunderground v.1.15,2013-03-06 05:23:00,
2013-03-06 00:25:00,29.7,27.9,30.07,NE,46,0.0,3.0,93,0.00,,,0.00,Wunderground v.1.15,2013-03-06 05:25:00,
2013-03-06 00:27:00,29.7,27.9,30.07,ENE,63,0.0,3.0,93,0.00,,,0.00,Wunderground v.1.15,2013-03-06 05:27:00,
2013-03-06 00:28:00,29.7,27.9,30.07,ENE,63,0.0,3.0,93,0.00,,,0.00,Wunderground v.1.15,2013-03-06 05:28:00,
2013-03-06 00:30:00,29.8,28.0,30.07,ENE,63,0.0,1.0,93,0.00,,,0.00,Wunderground v.1.15,2013-03-06 05:30:00,
2013-03-06 00:33:00,29.8,28.3,30.07,North,351,0.0,2.0,94,0.00,,,0.00,Wunderground v.1.15,2013-03-06 05:33:00,
2013-03-06 00:37:00,29.8,28.0,30.07,East,79,4.0,4.0,93,0.00,,,0.00,Wunderground v.1.15,2013-03-06 05:37:00,
2013-03-06 00:39:00,29.9,28.4,30.07,ENE,62,0.0,4.0,94,0.00,,,0.00,Wunderground v.1.15,2013-03-06 05:39:00,
2013-03-06 00:40:00,29.9,28.4,30.07,NNW,348,0.0,1.0,94,0.00,,,0.00,Wunderground v.1.15,2013-03-06 05:40:00,
2013-03-06 00:44:00,30.1,28.6,30.07,NNE,22,3.0,6.0,94,0.00,,,0.00,Wunderground v.1.15,2013-03-06 05:44:00,
2013-03-06 00:45:00,30.1,28.6,30.07,NE,39,3.0,6.0,94,0.00,,,0.00,Wunderground v.1.15,2013-03-06 05:45:00,
2013-03-06 00:46:00,30.1,28.6,30.07,ENE,63,5.0,6.0,94,0.00,,,0.00,Wunderground v.1.15,2013-03-06 05:46:00,
2013-03-06 00:49:00,30.1,28.6,30.07,NNE,23,3.0,6.0,94,0.00,,,0.00,Wunderground v.1.15,2013-03-06 05:49:00,
2013-03-06 00:50:00,30.1,28.6,30.07,North,11,4.0,4.0,94,0.00,,,0.00,Wunderground v.1.15,2013-03-06 05:50:00,
2013-03-06 00:51:00,30.1,28.6,30.07,WNW,298,1.0,4.0,94,0.00,,,0.00,Wunderground v.1.15,2013-03-06 05:51:00,
2013-03-06 00:53:00,30.1,28.6,30.07,NNE,17,6.0,6.0,94,0.00,,,0.00,Wunderground v.1.15,2013-03-06 05:53:00,
2013-03-06 00:58:00,30.2,28.7,30.07,North,10,0.0,6.0,94,0.00,,,0.00,Wunderground v.1.15,2013-03-06 05:58:00,
2013-03-06 00:59:00,30.2,28.7,30.07,North,10,0.0,6.0,94,0.00,,,0.00,Wunderground v.1.15,2013-03-06 05:59:00,
2013-03-06 01:01:00,30.2,28.7,30.07,NNE,32,4.0,4.0,94,0.00,,,0.00,Wunderground v.1.15,2013-03-06 06:01:00,
2013-03-06 01:02:00,30.2,28.7,30.07,NNE,32,0.0,4.0,94,0.00,,,0.00,Wunderground v.1.15,2013-03-06 06:02:00,
2013-03-06 01:06:00,30.2,28.7,30.07,NNE,12,2.0,6.0,94,0.00,,,0.00,Wunderground v.1.15,2013-03-06 06:06:00,
2013-03-06 01:07:00,30.1,28.6,30.07,East,101,2.0,6.0,94,0.00,,,0.00,Wunderground v.1.15,2013-03-06 06:07:00,
2013-03-06 01:08:00,30.1,28.6,30.07,NNW,346,4.0,6.0,94,0.00,,,0.00,Wunderground v.1.15,2013-03-06 06:08:00,
2013-03-06 01:12:00,30.0,28.5,30.07,North,5,3.0,4.0,94,0.00,,,0.00,Wunderground v.1.15,2013-03-06 06:12:00,
2013-03-06 01:13:00,30.0,28.5,30.07,NNE,30,5.0,5.0,94,0.00,,,0.00,Wunderground v.1.15,2013-03-06 06:13:00,
2013-03-06 01:14:00,30.0,28.5,30.08,ENE,58,2.0,5.0,94,0.00,,,0.00,Wunderground v.1.15,2013-03-06 06:14:00,
2013-03-06 01:17:00,30.0,28.7,30.08,ENE,77,8.0,8.0,95,0.00,,,0.00,Wunderground v.1.15,2013-03-06 06:17:00,
2013-03-06 01:18:00,30.0,28.7,30.07,East,86,4.0,8.0,95,0.00,,,0.00,Wunderground v.1.15,2013-03-06 06:18:00,
2013-03-06 01:19:00,29.9,28.6,30.08,East,94,0.0,8.0,95,0.00,,,0.00,Wunderground v.1.15,2013-03-06 06:19:00,
2013-03-06 01:23:00,29.9,28.6,30.08,NE,54,2.0,4.0,95,0.00,,,0.00,Wunderground v.1.15,2013-03-06 06:23:00,
2013-03-06 01:24:00,29.9,28.6,30.07,NNE,28,4.0,4.0,95,0.00,,,0.00,Wunderground v.1.15,2013-03-06 06:24:00,
2013-03-06 01:25:00,29.9,28.6,30.07,NE,56,0.0,4.0,95,0.00,,,0.00,Wunderground v.1.15,2013-03-06 06:25:00,
2013-03-06 01:26:00,29.9,28.6,30.07,ENE,63,1.0,4.0,95,0.00,,,0.00,Wunderground v.1.15,2013-03-06 06:26:00,
2013-03-06 01:30:00,29.8,28.5,30.07,NNE,13,2.0,2.0,95,0.00,,,0.00,Wunderground v.1.15,2013-03-06 06:30:00,
2013-03-06 01:33:00,29.7,28.4,30.07,ENE,57,0.0,5.0,95,0.00,,,0.00,Wunderground v.1.15,2013-03-06 06:33:00,
2013-03-06 01:35:00,29.7,28.4,30.07,ENE,60,2.0,5.0,95,0.00,,,0.00,Wunderground v.1.15,2013-03-06 06:35:00,
2013-03-06 01:36:00,29.6,28.3,30.07,North,10,6.0,6.0,95,0.00,,,0.00,Wunderground v.1.15,2013-03-06 06:36:00,
2013-03-06 01:39:00,29.6,28.3,30.07,NNW,329,4.0,6.0,95,0.00,,,0.00,Wunderground v.1.15,2013-03-06 06:39:00,
2013-03-06 01:40:00,29.6,28.3,30.07,East,81,1.0,4.0,95,0.00,,,0.00,Wunderground v.1.15,2013-03-06 06:40:00,
2013-03-06 01:42:00,29.6,28.3,30.06,NNW,329,2.0,6.0,95,0.00,,,0.00,Wunderground v.1.15,2013-03-06 06:42:00,
2013-03-06 01:43:00,29.6,28.3,30.06,SE,128,6.0,6.0,95,0.00,,,0.00,Wunderground v.1.15,2013-03-06 06:43:00,
2013-03-06 01:45:00,29.6,28.3,30.06,North,355,4.0,7.0,95,0.00,,,0.00,Wunderground v.1.15,2013-03-06 06:45:00,
2013-03-06 01:47:00,29.6,28.3,30.06,North,360,3.0,7.0,95,0.00,,,0.00,Wunderground v.1.15,2013-03-06 06:47:00,
2013-03-06 01:50:00,29.7,28.4,30.06,WNW,284,9.0,9.0,95,0.00,,,0.00,Wunderground v.1.15,2013-03-06 06:50:00,
2013-03-06 01:51:00,29.7,28.4,30.06,NE,40,1.0,9.0,95,0.00,,,0.00,Wunderground v.1.15,2013-03-06 06:51:00,
2013-03-06 01:53:00,29.7,28.4,30.06,North,9,7.0,9.0,95,0.00,,,0.00,Wunderground v.1.15,2013-03-06 06:53:00,
2013-03-06 01:56:00,29.7,28.4,30.06,ENE,60,3.0,9.0,95,0.00,,,0.00,Wunderground v.1.15,2013-03-06 06:56:00,
2013-03-06 01:57:00,29.7,28.4,30.06,NNE,30,7.0,9.0,95,0.00,,,0.00,Wunderground v.1.15,2013-03-06 06:57:00,
2013-03-06 01:59:00,29.7,28.4,30.06,NE,56,2.0,9.0,95,0.00,,,0.00,Wunderground v.1.15,2013-03-06 06:59:00,
2013-03-06 02:01:00,29.7,28.4,30.06,NE,51,8.0,10.0,95,0.00,,,0.00,Wunderground v.1.15,2013-03-06 07:01:00,
2013-03-06 02:02:00,29.7,28.4,30.06,ENE,69,14.0,14.0,95,0.00,,,0.00,Wunderground v.1.15,2013-03-06 07:02:00,
2013-03-06 02:04:00,29.7,28.4,30.06,NE,45,4.0,14.0,95,0.00,,,0.00,Wunderground v.1.15,2013-03-06 07:04:00,
2013-03-06 02:06:00,29.7,28.4,30.06,NE,45,0.0,14.0,95,0.00,,,0.00,Wunderground v.1.15,2013-03-06 07:06:00,
2013-03-06 02:07:00,29.6,28.3,30.06,North,360,5.0,14.0,95,0.00,,,0.00,Wunderground v.1.15,2013-03-06 07:07:00,
2013-03-06 02:10:00,29.7,28.4,30.06,NNW,343,3.0,5.0,95,0.00,,,0.00,Wunderground v.1.15,2013-03-06 07:10:00,
2013-03-06 02:11:00,29.6,28.3,30.06,NW,304,0.0,5.0,95,0.00,,,0.00,Wunderground v.1.15,2013-03-06 07:11:00,
2013-03-06 02:12:00,29.6,28.3,30.06,NNE,24,0.0,5.0,95,0.00,,,0.00,Wunderground v.1.15,2013-03-06 07:12:00,
2013-03-06 02:15:00,29.6,28.3,30.06,NE,55,6.0,10.0,95,0.00,,,0.00,Wunderground v.1.15,2013-03-06 07:15:00,
2013-03-06 02:16:00,29.6,28.3,30.06,NNE,30,3.0,10.0,95,0.00,,,0.00,Wunderground v.1.15,2013-03-06 07:16:00,
2013-03-06 02:17:00,29.6,28.3,30.06,NNE,23,2.0,10.0,95,0.00,,,0.00,Wunderground v.1.15,2013-03-06 07:17:00,
2013-03-06 02:20:00,29.6,28.3,30.06,NE,42,0.0,7.0,95,0.00,,,0.00,Wunderground v.1.15,2013-03-06 07:20:00,
2013-03-06 02:21:00,29.6,28.3,30.06,NNE,14,2.0,7.0,95,0.00,,,0.00,Wunderground v.1.15,2013-03-06 07:21:00,
2013-03-06 02:22:00,29.7,28.4,30.06,NNE,22,3.0,7.0,95,0.00,,,0.00,Wunderground v.1.15,2013-03-06 07:22:00,
2013-03-06 02:23:00,29.7,28.4,30.05,NE,41,5.0,8.0,95,0.00,,,0.00,Wunderground v.1.15,2013-03-06 07:23:00,
2013-03-06 02:26:00,29.7,28.4,30.05,NE,40,4.0,8.0,95,0.00,,,0.00,Wunderground v.1.15,2013-03-06 07:26:00,
2013-03-06 02:27:00,29.7,28.4,30.05,NE,53,4.0,10.0,95,0.00,,,0.00,Wunderground v.1.15,2013-03-06 07:27:00,
2013-03-06 02:28:00,29.7,28.4,30.05,NNE,30,6.0,10.0,95,0.00,,,0.00,Wunderground v.1.15,2013-03-06 07:28:00,
2013-03-06 02:31:00,29.7,28.4,30.05,North,355,6.0,6.0,95,0.00,,,0.00,Wunderground v.1.15,2013-03-06 07:31:00,
2013-03-06 02:32:00,29.7,28.4,30.05,ENE,71,1.0,10.0,95,0.00,,,0.00,Wunderground v.1.15,2013-03-06 07:32:00,
2013-03-06 02:33:00,29.7,28.4,30.05,East,86,0.0,11.0,95,0.00,,,0.00,Wunderground v.1.15,2013-03-06 07:33:00,
2013-03-06 02:36:00,29.7,28.4,30.05,North,360,3.0,11.0,95,0.00,,,0.00,Wunderground v.1.15,2013-03-06 07:36:00,
2013-03-06 02:37:00,29.7,28.4,30.05,North,355,4.0,11.0,95,0.00,,,0.00,Wunderground v.1.15,2013-03-06 07:37:00,
2013-03-06 02:38:00,29.7,28.4,30.05,NE,44,0.0,11.0,95,0.00,,,0.00,Wunderground v.1.15,2013-03-06 07:38:00,
2013-03-06 02:41:00,29.7,28.4,30.05,NNW,347,5.0,6.0,95,0.00,,,0.00,Wunderground v.1.15,2013-03-06 07:41:00,
2013-03-06 02:42:00,29.7,28.4,30.05,NNW,329,5.0,6.0,95,0.00,,,0.00,Wunderground v.1.15,2013-03-06 07:42:00,
2013-03-06 02:43:00,29.7,28.4,30.05,NNE,32,0.0,6.0,95,0.00,,,0.00,Wunderground v.1.15,2013-03-06 07:43:00,
2013-03-06 02:44:00,29.7,28.4,30.05,NNE,26,0.0,6.0,95,0.00,,,0.00,Wunderground v.1.15,2013-03-06 07:44:00,
2013-03-06 02:47:00,29.7,28.4,30.05,East,84,1.0,8.0,95,0.00,,,0.00,Wunderground v.1.15,2013-03-06 07:47:00,
2013-03-06 02:48:00,29.7,28.4,30.05,NE,44,4.0,8.0,95,0.00,,,0.00,Wunderground v.1.15,2013-03-06 07:48:00,
2013-03-06 02:49:00,29.7,28.4,30.05,NE,54,4.0,8.0,95,0.00,,,0.00,Wunderground v.1.15,2013-03-06 07:49:00,
2013-03-06 02:52:00,29.7,28.4,30.05,North,9,5.0,9.0,95,0.00,,,0.00,Wunderground v.1.15,2013-03-06 07:52:00,
2013-03-06 02:53:00,29.7,28.4,30.05,West,267,0.0,9.0,95,0.00,,,0.00,Wunderground v.1.15,2013-03-06 07:53:00,
2013-03-06 02:54:00,29.7,28.4,30.05,NNW,348,8.0,9.0,95,0.00,,,0.00,Wunderground v.1.15,2013-03-06 07:54:00,
2013-03-06 02:57:00,29.7,28.7,30.05,ENE,63,4.0,13.0,96,0.00,,,0.00,Wunderground v.1.15,2013-03-06 07:57:00,
2013-03-06 02:58:00,29.7,28.7,30.05,NNE,30,9.0,13.0,96,0.00,,,0.00,Wunderground v.1.15,2013-03-06 07:58:00,
2013-03-06 02:59:00,29.7,28.7,30.05,NE,42,5.0,13.0,96,0.00,,,0.00,Wunderground v.1.15,2013-03-06 07:59:00,
2013-03-06 03:02:00,29.7,28.7,30.05,NW,310,2.0,10.0,96,0.00,,,0.00,Wunderground v.1.15,2013-03-06 08:02:00,
2013-03-06 03:03:00,29.7,28.7,30.05,ENE,68,3.0,10.0,96,0.00,,,0.00,Wunderground v.1.15,2013-03-06 08:03:00,
2013-03-06 03:05:00,29.7,28.7,30.05,North,9,4.0,11.0,96,0.00,,,0.00,Wunderground v.1.15,2013-03-06 08:05:00,
2013-03-06 03:07:00,29.7,28.7,30.05,NNE,17,5.0,11.0,96,0.00,,,0.00,Wunderground v.1.15,2013-03-06 08:07:00,
2013-03-06 03:08:00,29.7,28.7,30.05,NNE,12,6.0,11.0,96,0.00,,,0.00,Wunderground v.1.15,2013-03-06 08:08:00,
2013-03-06 03:10:00,29.7,28.7,30.05,North,360,1.0,4.0,96,0.00,,,0.00,Wunderground v.1.15,2013-03-06 08:10:00,
2013-03-06 03:13:00,29.7,28.7,30.05,NNW,334,1.0,4.0,96,0.00,,,0.00,Wunderground v.1.15,2013-03-06 08:13:00,
2013-03-06 03:14:00,29.7,28.7,30.05,NNW,347,8.0,8.0,96,0.00,,,0.00,Wunderground v.1.15,2013-03-06 08:14:00,
2013-03-06 03:15:00,29.7,28.7,30.05,NE,41,7.0,12.0,96,0.00,,,0.00,Wunderground v.1.15,2013-03-06 08:15:00,
2013-03-06 03:18:00,29.7,28.7,30.05,NNW,338,8.0,12.0,96,0.00,,,0.00,Wunderground v.1.15,2013-03-06 08:18:00,
2013-03-06 03:19:00,29.7,28.7,30.05,NNW,339,8.0,12.0,96,0.00,,,0.00,Wunderground v.1.15,2013-03-06 08:19:00,
2013-03-06 03:21:00,29.7,28.7,30.05,NE,47,3.0,9.0,96,0.00,,,0.00,Wunderground v.1.15,2013-03-06 08:21:00,
2013-03-06 03:23:00,29.6,28.6,30.05,NNE,22,7.0,9.0,96,0.00,,,0.00,Wunderground v.1.15,2013-03-06 08:23:00,
2013-03-06 03:24:00,29.6,28.6,30.05,NNE,22,6.0,9.0,96,0.00,,,0.00,Wunderground v.1.15,2013-03-06 08:24:00,
2013-03-06 03:26:00,29.6,28.6,30.06,NNE,33,4.0,14.0,96,0.00,,,0.00,Wunderground v.1.15,2013-03-06 08:26:00,
2013-03-06 03:28:00,29.6,28.6,30.06,NE,36,3.0,14.0,96,0.00,,,0.00,Wunderground v.1.15,2013-03-06 08:28:00,
2013-03-06 03:29:00,29.6,28.6,30.06,NNW,333,3.0,14.0,96,0.00,,,0.00,Wunderground v.1.15,2013-03-06 08:29:00,
2013-03-06 03:31:00,29.6,28.6,30.05,NE,40,8.0,12.0,96,0.00,,,0.00,Wunderground v.1.15,2013-03-06 08:31:00,
2013-03-06 03:33:00,29.6,28.6,30.05,North,355,6.0,17.0,96,0.00,,,0.00,Wunderground v.1.15,2013-03-06 08:33:00,
2013-03-06 03:34:00,29.5,28.5,30.06,NE,42,5.0,17.0,96,0.00,,,0.00,Wunderground v.1.15,2013-03-06 08:34:00,
2013-03-06 03:36:00,29.6,28.6,30.06,NNW,345,5.0,17.0,96,0.00,,,0.00,Wunderground v.1.15,2013-03-06 08:36:00,
2013-03-06 03:38:00,29.5,28.5,30.06,NNE,26,5.0,17.0,96,0.00,,,0.00,Wunderground v.1.15,2013-03-06 08:38:00,
2013-03-06 03:39:00,29.5,28.5,30.06,ENE,78,3.0,17.0,96,0.00,,,0.00,Wunderground v.1.15,2013-03-06 08:39:00,
2013-03-06 03:41:00,29.5,28.5,30.06,NNE,24,5.0,8.0,96,0.00,,,0.00,Wunderground v.1.15,2013-03-06 08:41:00,
2013-03-06 03:43:00,29.5,28.5,30.06,NNE,13,5.0,9.0,96,0.00,,,0.00,Wunderground v.1.15,2013-03-06 08:43:00,
2013-03-06 03:44:00,29.5,28.5,30.06,NE,40,10.0,10.0,96,0.00,,,0.00,Wunderground v.1.15,2013-03-06 08:44:00,
2013-03-06 03:47:00,29.4,28.4,30.06,NNW,329,4.0,13.0,96,0.00,,,0.00,Wunderground v.1.15,2013-03-06 08:47:00,
2013-03-06 03:49:00,29.4,28.4,30.06,East,97,9.0,13.0,96,0.00,,,0.00,Wunderground v.1.15,2013-03-06 08:49:00,
2013-03-06 03:52:00,29.4,28.4,30.06,NNW,339,3.0,6.0,96,0.00,,,0.00,Wunderground v.1.15,2013-03-06 08:52:00,
2013-03-06 03:54:00,29.4,28.4,30.06,NNE,13,0.0,7.0,96,0.00,,,0.00,Wunderground v.1.15,2013-03-06 08:54:00,
2013-03-06 03:55:00,29.4,28.4,30.06,East,92,0.0,8.0,96,0.00,,,0.00,Wunderground v.1.15,2013-03-06 08:55:00,
2013-03-06 03:57:00,29.4,28.4,30.06,East,101,0.0,8.0,96,0.00,,,0.00,Wunderground v.1.15,2013-03-06 08:57:00,
2013-03-06 03:59:00,29.4,28.4,30.07,NNE,26,6.0,12.0,96,0.00,,,0.00,Wunderground v.1.15,2013-03-06 08:59:00,
2013-03-06 04:00:00,29.4,28.4,30.07,NE,37,4.0,7.0,96,0.00,,,0.00,Wunderground v.1.15,2013-03-06 09:00:00,
2013-03-06 04:02:00,29.4,28.4,30.07,North,11,4.0,7.0,96,0.00,,,0.00,Wunderground v.1.15,2013-03-06 09:02:00,
2013-03-06 04:04:00,29.4,28.4,30.06,NNE,29,5.0,7.0,96,0.00,,,0.00,Wunderground v.1.15,2013-03-06 09:04:00,
2013-03-06 04:05:00,29.4,28.4,30.07,East,84,0.0,7.0,96,0.00,,,0.00,Wunderground v.1.15,2013-03-06 09:05:00,
2013-03-06 04:06:00,29.4,28.4,30.07,ESE,106,0.0,7.0,96,0.00,,,0.00,Wunderground v.1.15,2013-03-06 09:06:00,
2013-03-06 04:07:00,29.4,28.4,30.07,ESE,107,4.0,7.0,96,0.00,,,0.00,Wunderground v.1.15,2013-03-06 09:07:00,
2013-03-06 04:09:00,29.4,28.4,30.07,NE,36,5.0,8.0,96,0.00,,,0.00,Wunderground v.1.15,2013-03-06 09:09:00,
2013-03-06 04:10:00,29.4,28.4,30.07,ENE,76,1.0,6.0,96,0.00,,,0.00,Wunderground v.1.15,2013-03-06 09:10:00,
2013-03-06 04:11:00,29.4,28.4,30.07,ENE,76,0.0,6.0,96,0.00,,,0.00,Wunderground v.1.15,2013-03-06 09:11:00,
2013-03-06 04:12:00,29.3,28.3,30.07,ENE,57,1.0,6.0,96,0.00,,,0.00,Wunderground v.1.15,2013-03-06 09:12:00,
2013-03-06 04:14:00,29.3,28.3,30.07,NE,47,0.0,6.0,96,0.00,,,0.00,Wunderground v.1.15,2013-03-06 09:14:00,
2013-03-06 04:15:00,29.3,28.3,30.07,East,101,6.0,6.0,96,0.00,,,0.00,Wunderground v.1.15,2013-03-06 09:15:00,
2013-03-06 04:16:00,29.3,28.3,30.07,North,360,1.0,7.0,96,0.00,,,0.00,Wunderground v.1.15,2013-03-06 09:16:00,
2013-03-06 04:17:00,29.3,28.3,30.07,North,360,0.0,7.0,96,0.00,,,0.00,Wunderground v.1.15,2013-03-06 09:17:00,
2013-03-06 04:20:00,29.3,28.3,30.07,North,360,5.0,7.0,96,0.00,,,0.00,Wunderground v.1.15,2013-03-06 09:20:00,
2013-03-06 04:21:00,29.3,28.3,30.07,ENE,74,3.0,7.0,96,0.00,,,0.00,Wunderground v.1.15,2013-03-06 09:21:00,
2013-03-06 04:22:00,29.3,28.3,30.07,ESE,113,0.0,7.0,96,0.00,,,0.00,Wunderground v.1.15,2013-03-06 09:22:00,
2013-03-06 04:25:00,29.3,28.3,30.07,NE,44,1.0,10.0,96,0.00,,,0.00,Wunderground v.1.15,2013-03-06 09:25:00,
2013-03-06 04:26:00,29.3,28.3,30.07,East,92,4.0,10.0,96,0.00,,,0.00,Wunderground v.1.15,2013-03-06 09:26:00,
2013-03-06 04:28:00,29.3,28.3,30.07,ENE,58,4.0,17.0,96,0.00,,,0.00,Wunderground v.1.15,2013-03-06 09:28:00,
2013-03-06 04:30:00,29.3,28.3,30.07,NNE,22,2.0,5.0,96,0.00,,,0.00,Wunderground v.1.15,2013-03-06 09:30:00,
2013-03-06 04:32:00,29.3,28.3,30.07,East,91,0.0,5.0,96,0.00,,,0.00,Wunderground v.1.15,2013-03-06 09:32:00,
2013-03-06 04:33:00,29.3,28.3,30.07,ENE,65,13.0,13.0,96,0.00,,,0.00,Wunderground v.1.15,2013-03-06 09:33:00,
2013-03-06 04:36:00,29.3,28.3,30.07,ENE,76,1.0,13.0,96,0.00,,,0.00,Wunderground v.1.15,2013-03-06 09:36:00,
2013-03-06 04:37:00,29.3,28.3,30.07,ENE,67,1.0,13.0,96,0.00,,,0.00,Wunderground v.1.15,2013-03-06 09:37:00,
2013-03-06 04:38:00,29.3,28.3,30.07,NNE,13,5.0,13.0,96,0.00,,,0.00,Wunderground v.1.15,2013-03-06 09:38:00,
2013-03-06 04:42:00,29.3,28.3,30.07,NNE,28,0.0,2.0,96,0.00,,,0.00,Wunderground v.1.15,2013-03-06 09:42:00,
2013-03-06 04:43:00,29.3,28.3,30.07,North,360,1.0,2.0,96,0.00,,,0.00,Wunderground v.1.15,2013-03-06 09:43:00,
2013-03-06 04:47:00,29.3,28.3,30.07,East,92,1.0,7.0,96,0.00,,,0.00,Wunderground v.1.15,2013-03-06 09:47:00,
2013-03-06 04:48:00,29.2,28.2,30.07,NNE,21,4.0,8.0,96,0.00,,,0.00,Wunderground v.1.15,2013-03-06 09:48:00,
2013-03-06 04:49:00,29.2,28.2,30.07,North,9,0.0,8.0,96,0.00,,,0.00,Wunderground v.1.15,2013-03-06 09:49:00,
2013-03-06 04:52:00,29.2,28.2,30.07,SSE,159,2.0,8.0,96,0.00,,,0.00,Wunderground v.1.15,2013-03-06 09:52:00,
2013-03-06 04:53:00,29.2,28.2,30.07,NNE,19,5.0,8.0,96,0.00,,,0.00,Wunderground v.1.15,2013-03-06 09:53:00,
2013-03-06 04:54:00,29.2,28.2,30.07,North,355,4.0,12.0,96,0.00,,,0.00,Wunderground v.1.15,2013-03-06 09:54:00,
2013-03-06 04:57:00,29.2,28.2,30.07,NE,44,4.0,12.0,96,0.00,,,0.00,Wunderground v.1.15,2013-03-06 09:57:00,
2013-03-06 04:58:00,29.2,28.2,30.07,North,360,8.0,12.0,96,0.00,,,0.00,Wunderground v.1.15,2013-03-06 09:58:00,
2013-03-06 04:59:00,29.2,28.2,30.07,NE,34,2.0,12.0,96,0.00,,,0.00,Wunderground v.1.15,2013-03-06 09:59:00,
2013-03-06 05:02:00,29.2,28.2,30.07,NNW,334,6.0,6.0,96,0.00,,,0.00,Wunderground v.1.15,2013-03-06 10:02:00,
2013-03-06 05:03:00,29.2,28.2,30.06,ENE,77,2.0,10.0,96,0.00,,,0.00,Wunderground v.1.15,2013-03-06 10:03:00,
2013-03-06 05:05:00,29.2,28.2,30.07,East,100,0.0,10.0,96,0.00,,,0.00,Wunderground v.1.15,2013-03-06 10:05:00,
2013-03-06 05:07:00,29.1,28.1,30.06,NE,35,1.0,10.0,96,0.00,,,0.00,Wunderground v.1.15,2013-03-06 10:07:00,
2013-03-06 05:08:00,29.1,28.1,30.06,North,360,5.0,10.0,96,0.00,,,0.00,Wunderground v.1.15,2013-03-06 10:08:00,
2013-03-06 05:09:00,29.1,28.1,30.06,NNW,345,2.0,10.0,96,0.00,,,0.00,Wunderground v.1.15,2013-03-06 10:09:00,
2013-03-06 05:10:00,29.1,28.1,30.06,SSE,149,2.0,10.0,96,0.00,,,0.00,Wunderground v.1.15,2013-03-06 10:10:00,
2013-03-06 05:13:00,29.1,28.1,30.06,West,270,3.0,4.0,96,0.00,,,0.00,Wunderground v.1.15,2013-03-06 10:13:00,
2013-03-06 05:14:00,29.1,28.1,30.06,ENE,62,5.0,8.0,96,0.00,,,0.00,Wunderground v.1.15,2013-03-06 10:14:00,
2013-03-06 05:15:00,29.1,28.1,30.06,NE,38,11.0,11.0,96,0.00,,,0.00,Wunderground v.1.15,2013-03-06 10:15:00,
2013-03-06 05:18:00,29.1,28.1,30.06,North,360,5.0,16.0,96,0.00,,,0.00,Wunderground v.1.15,2013-03-06 10:18:00,
2013-03-06 05:19:00,29.1,28.1,30.06,North,355,3.0,16.0,96,0.00,,,0.00,Wunderground v.1.15,2013-03-06 10:19:00,
2013-03-06 05:20:00,29.1,28.1,30.06,SSW,198,0.0,3.0,96,0.00,,,0.00,Wunderground v.1.15,2013-03-06 10:20:00,
2013-03-06 05:23:00,29.1,28.1,30.07,NE,48,2.0,10.0,96,0.00,,,0.00,Wunderground v.1.15,2013-03-06 10:23:00,
2013-03-06 05:24:00,29.1,28.1,30.06,East,79,2.0,10.0,96,0.00,,,0.00,Wunderground v.1.15,2013-03-06 10:24:00,
2013-03-06 05:25:00,29.0,28.0,30.06,NNE,17,17.0,17.0,96,0.00,,,0.00,Wunderground v.1.15,2013-03-06 10:25:00,
2013-03-06 05:28:00,29.0,28.0,30.06,ENE,60,8.0,17.0,96,0.00,,,0.00,Wunderground v.1.15,2013-03-06 10:28:00,
2013-03-06 05:29:00,29.0,28.0,30.06,North,5,4.0,17.0,96,0.00,,,0.00,Wunderground v.1.15,2013-03-06 10:29:00,
2013-03-06 05:30:00,29.0,28.0,30.06,ESE,104,9.0,14.0,96,0.00,,,0.00,Wunderground v.1.15,2013-03-06 10:30:00,
2013-03-06 05:33:00,29.0,28.0,30.06,NNE,19,0.0,14.0,96,0.00,,,0.00,Wunderground v.1.15,2013-03-06 10:33:00,
2013-03-06 05:34:00,29.0,28.0,30.07,NE,51,15.0,15.0,96,0.00,,,0.00,Wunderground v.1.15,2013-03-06 10:34:00,
2013-03-06 05:35:00,29.0,28.0,30.07,NE,56,7.0,15.0,96,0.00,,,0.00,Wunderground v.1.15,2013-03-06 10:35:00,
2013-03-06 05:38:00,29.0,28.0,30.07,North,360,7.0,15.0,96,0.00,,,0.00,Wunderground v.1.15,2013-03-06 10:38:00,
2013-03-06 05:40:00,29.0,28.0,30.06,NNE,22,0.0,4.0,96,0.00,,,0.00,Wunderground v.1.15,2013-03-06 10:40:00,
2013-03-06 05:41:00,29.0,28.0,30.06,SE,138,1.0,9.0,96,0.00,,,0.00,Wunderground v.1.15,2013-03-06 10:41:00,
2013-03-06 05:42:00,29.0,28.0,30.07,ENE,64,2.0,9.0,96,0.00,,,0.00,Wunderground v.1.15,2013-03-06 10:42:00,
2013-03-06 05:43:00,29.0,28.0,30.07,NNW,332,4.0,9.0,96,0.00,,,0.00,Wunderground v.1.15,2013-03-06 10:43:00,
2013-03-06 05:45:00,29.0,28.0,30.07,ESE,122,11.0,11.0,96,0.00,,,0.00,Wunderground v.1.15,2013-03-06 10:45:00,
2013-03-06 05:46:00,29.0,28.0,30.07,South,186,3.0,12.0,96,0.00,,,0.00,Wunderground v.1.15,2013-03-06 10:46:00,
2013-03-06 05:47:00,29.0,28.0,30.07,WNW,292,2.0,12.0,96,0.00,,,0.00,Wunderground v.1.15,2013-03-06 10:47:00,
2013-03-06 05:48:00,29.0,28.0,30.07,NE,49,5.0,12.0,96,0.00,,,0.00,Wunderground v.1.15,2013-03-06 10:48:00,
2013-03-06 05:50:00,29.0,28.0,30.07,ESE,104,0.0,6.0,96,0.00,,,0.00,Wunderground v.1.15,2013-03-06 10:50:00,
2013-03-06 05:52:00,29.0,28.0,30.07,ENE,71,4.0,6.0,96,0.00,,,0.00,Wunderground v.1.15,2013-03-06 10:52:00,
2013-03-06 05:53:00,29.0,28.0,30.07,WNW,294,1.0,6.0,96,0.00,,,0.00,Wunderground v.1.15,2013-03-06 10:53:00,
2013-03-06 05:55:00,29.0,28.0,30.07,WNW,284,3.0,9.0,96,0.00,,,0.00,Wunderground v.1.15,2013-03-06 10:55:00,
2013-03-06 05:57:00,29.0,28.0,30.07,NNE,26,5.0,9.0,96,0.00,,,0.00,Wunderground v.1.15,2013-03-06 10:57:00,
2013-03-06 05:58:00,29.0,28.0,30.07,WNW,298,1.0,9.0,96,0.00,,,0.00,Wunderground v.1.15,2013-03-06 10:58:00,
2013-03-06 06:00:00,29.0,28.0,30.07,NNW,345,3.0,9.0,96,0.00,,,0.00,Wunderground v.1.15,2013-03-06 11:00:00,
2013-03-06 06:03:00,29.0,28.0,30.06,ENE,76,6.0,10.0,96,0.00,,,0.00,Wunderground v.1.15,2013-03-06 11:03:00,
2013-03-06 06:05:00,29.0,28.0,30.07,North,355,4.0,11.0,96,0.00,,,0.00,Wunderground v.1.15,2013-03-06 11:05:00,
2013-03-06 06:08:00,29.0,28.0,30.07,ENE,57,5.0,11.0,96,0.00,,,0.00,Wunderground v.1.15,2013-03-06 11:08:00,
2013-03-06 06:09:00,29.1,28.1,30.07,ENE,61,7.0,11.0,96,0.00,,,0.00,Wunderground v.1.15,2013-03-06 11:09:00,
2013-03-06 06:10:00,29.0,28.0,30.06,North,10,2.0,8.0,96,0.00,,,0.00,Wunderground v.1.15,2013-03-06 11:10:00,
2013-03-06 06:13:00,29.0,28.0,30.06,NE,36,8.0,9.0,96,0.00,,,0.00,Wunderground v.1.15,2013-03-06 11:13:00,
2013-03-06 06:14:00,29.1,28.1,30.07,ENE,61,10.0,12.0,96,0.00,,,0.00,Wunderground v.1.15,2013-03-06 11:14:00,
2013-03-06 06:15:00,29.1,28.1,30.07,NE,38,14.0,14.0,96,0.00,,,0.00,Wunderground v.1.15,2013-03-06 11:15:00,
2013-03-06 06:18:00,29.1,28.1,30.07,ESE,121,5.0,16.0,96,0.00,,,0.00,Wunderground v.1.15,2013-03-06 11:18:00,
2013-03-06 06:19:00,29.1,28.1,30.07,ENE,71,3.0,16.0,96,0.00,,,0.00,Wunderground v.1.15,2013-03-06 11:19:00,
2013-03-06 06:21:00,29.1,28.1,30.06,North,5,5.0,7.0,96,0.00,,,0.00,Wunderground v.1.15,2013-03-06 11:21:00,
2013-03-06 06:24:00,29.1,28.1,30.06,East,83,0.0,18.0,96,0.00,,,0.00,Wunderground v.1.15,2013-03-06 11:24:00,
2013-03-06 06:26:00,29.1,28.1,30.06,North,350,1.0,18.0,96,0.00,,,0.00,Wunderground v.1.15,2013-03-06 11:26:00,
2013-03-06 06:29:00,29.1,28.1,30.06,ENE,67,1.0,18.0,96,0.00,,,0.00,Wunderground v.1.15,2013-03-06 11:29:00,
2013-03-06 06:30:00,29.1,28.1,30.06,NNE,24,4.0,4.0,96,0.00,,,0.00,Wunderground v.1.15,2013-03-06 11:30:00,
2013-03-06 06:31:00,29.1,28.1,30.06,East,80,0.0,12.0,96,0.00,,,0.00,Wunderground v.1.15,2013-03-06 11:31:00,
2013-03-06 06:34:00,29.1,28.1,30.06,WNW,296,4.0,12.0,96,0.00,,,0.00,Wunderground v.1.15,2013-03-06 11:34:00,
2013-03-06 06:35:00,29.2,28.2,30.06,NNE,32,5.0,12.0,96,0.00,,,0.00,Wunderground v.1.15,2013-03-06 11:35:00,
2013-03-06 06:36:00,29.1,28.1,30.06,NNE,25,2.0,12.0,96,0.00,,,0.00,Wunderground v.1.15,2013-03-06 11:36:00,
2013-03-06 06:39:00,29.1,28.1,30.06,SE,124,2.0,12.0,96,0.00,,,0.00,Wunderground v.1.15,2013-03-06 11:39:00,
2013-03-06 06:40:00,29.1,28.1,30.07,SE,124,2.0,12.0,96,0.00,,,0.00,Wunderground v.1.15,2013-03-06 11:40:00,
2013-03-06 06:41:00,29.2,28.5,30.06,NE,44,7.0,7.0,97,0.00,,,0.00,Wunderground v.1.15,2013-03-06 11:41:00,
2013-03-06 06:44:00,29.2,28.5,30.07,NE,47,3.0,11.0,97,0.00,,,0.00,Wunderground v.1.15,2013-03-06 11:44:00,
2013-03-06 06:45:00,29.2,28.5,30.07,ENE,63,3.0,11.0,97,0.00,,,0.00,Wunderground v.1.15,2013-03-06 11:45:00,
2013-03-06 06:46:00,29.2,28.5,30.07,NE,48,3.0,11.0,97,0.00,,,0.00,Wunderground v.1.15,2013-03-06 11:46:00,
2013-03-06 06:50:00,29.2,28.5,30.07,NE,35,3.0,3.0,97,0.00,,,0.00,Wunderground v.1.15,2013-03-06 11:50:00,
2013-03-06 06:51:00,29.2,28.5,30.07,WSW,244,2.0,3.0,97,0.00,,,0.00,Wunderground v.1.15,2013-03-06 11:51:00,
2013-03-06 06:52:00,29.2,28.5,30.07,NE,45,7.0,7.0,97,0.00,,,0.00,Wunderground v.1.15,2013-03-06 11:52:00,
2013-03-06 06:55:00,29.2,28.2,30.07,North,360,6.0,12.0,96,0.00,,,0.00,Wunderground v.1.15,2013-03-06 11:55:00,
2013-03-06 06:56:00,29.3,28.3,30.07,NNW,344,0.0,12.0,96,0.00,,,0.00,Wunderground v.1.15,2013-03-06 11:56:00,
2013-03-06 06:57:00,29.3,28.3,30.07,WNW,301,1.0,12.0,96,0.00,,,0.00,Wunderground v.1.15,2013-03-06 11:57:00,
2013-03-06 07:00:00,29.3,28.3,30.07,NNW,344,3.0,4.0,96,0.00,,,0.00,Wunderground v.1.15,2013-03-06 12:00:00,
2013-03-06 07:01:00,29.3,28.3,30.07,WNW,294,3.0,9.0,96,0.00,,,0.00,Wunderground v.1.15,2013-03-06 12:01:00,
2013-03-06 07:02:00,29.3,28.3,30.07,NE,34,4.0,9.0,96,0.00,,,0.00,Wunderground v.1.15,2013-03-06 12:02:00,
2013-03-06 07:05:00,29.2,28.2,30.08,ENE,64,2.0,9.0,96,0.00,,,0.00,Wunderground v.1.15,2013-03-06 12:05:00,
2013-03-06 07:06:00,29.3,28.3,30.07,East,85,4.0,10.0,96,0.00,,,0.00,Wunderground v.1.15,2013-03-06 12:06:00,
2013-03-06 07:07:00,29.3,28.3,30.07,NNE,16,3.0,10.0,96,0.00,,,0.00,Wunderground v.1.15,2013-03-06 12:07:00,
2013-03-06 07:10:00,29.3,28.3,30.07,NE,34,7.0,7.0,96,0.00,,,0.00,Wunderground v.1.15,2013-03-06 12:10:00,
2013-03-06 07:12:00,29.3,28.3,30.08,ESE,105,6.0,10.0,96,0.00,,,0.00,Wunderground v.1.15,2013-03-06 12:12:00,
2013-03-06 07:15:00,29.3,28.3,30.08,ENE,69,4.0,10.0,96,0.00,,,0.00,Wunderground v.1.15,2013-03-06 12:15:00,
2013-03-06 07:17:00,29.3,28.3,30.08,NNE,22,6.0,10.0,96,0.00,,,0.00,Wunderground v.1.15,2013-03-06 12:17:00,
2013-03-06 07:20:00,29.3,28.3,30.08,SE,125,0.0,4.0,96,0.00,,,0.00,Wunderground v.1.15,2013-03-06 12:20:00,
2013-03-06 07:22:00,29.3,28.3,30.08,North,360,4.0,9.0,96,0.00,,,0.00,Wunderground v.1.15,2013-03-06 12:22:00,
2013-03-06 07:25:00,29.3,28.3,30.08,NE,45,1.0,18.0,96,0.00,,,0.00,Wunderground v.1.15,2013-03-06 12:25:00,
2013-03-06 07:26:00,29.3,28.3,30.08,North,11,2.0,18.0,96,0.00,,,0.00,Wunderground v.1.15,2013-03-06 12:26:00,
2013-03-06 07:27:00,29.3,28.3,30.08,WNW,293,2.0,18.0,96,0.00,,,0.00,Wunderground v.1.15,2013-03-06 12:27:00,
2013-03-06 07:28:00,29.3,28.3,30.08,North,355,1.0,18.0,96,0.00,,,0.00,Wunderground v.1.15,2013-03-06 12:28:00,
2013-03-06 07:31:00,29.4,28.4,30.08,East,85,1.0,5.0,96,0.00,,,0.00,Wunderground v.1.15,2013-03-06 12:31:00,
2013-03-06 07:33:00,29.4,28.4,30.08,NNE,26,0.0,5.0,96,0.00,,,0.00,Wunderground v.1.15,2013-03-06 12:33:00,
2013-03-06 07:36:00,29.4,28.4,30.08,North,9,3.0,7.0,96,0.00,,,0.00,Wunderground v.1.15,2013-03-06 12:36:00,
2013-03-06 07:38:00,29.4,28.4,30.08,South,174,5.0,9.0,96,0.00,,,0.00,Wunderground v.1.15,2013-03-06 12:38:00,
2013-03-06 07:39:00,29.4,28.4,30.08,NNW,339,3.0,9.0,96,0.00,,,0.00,Wunderground v.1.15,2013-03-06 12:39:00,
2013-03-06 07:41:00,29.4,28.4,30.09,NNW,347,3.0,4.0,96,0.00,,,0.00,Wunderground v.1.15,2013-03-06 12:41:00,
2013-03-06 07:43:00,29.4,28.4,30.09,East,79,3.0,11.0,96,0.00,,,0.00,Wunderground v.1.15,2013-03-06 12:43:00,
2013-03-06 07:44:00,29.4,28.4,30.09,NE,51,0.0,11.0,96,0.00,,,0.00,Wunderground v.1.15,2013-03-06 12:44:00,
2013-03-06 07:46:00,29.4,28.4,30.09,ENE,72,4.0,11.0,96,0.00,,,0.00,Wunderground v.1.15,2013-03-06 12:46:00,
2013-03-06 07:48:00,29.4,28.4,30.09,WNW,301,6.0,11.0,96,0.00,,,0.00,Wunderground v.1.15,2013-03-06 12:48:00,
2013-03-06 07:49:00,29.4,28.4,30.09,North,355,0.0,11.0,96,0.00,,,0.00,Wunderground v.1.15,2013-03-06 12:49:00,
2013-03-06 07:51:00,29.4,28.4,30.09,North,355,3.0,3.0,96,0.00,,,0.00,Wunderground v.1.15,2013-03-06 12:51:00,
2013-03-06 07:54:00,29.4,28.4,30.09,West,281,4.0,7.0,96,0.00,,,0.00,Wunderground v.1.15,2013-03-06 12:54:00,
2013-03-06 07:56:00,29.5,28.5,30.10,North,355,3.0,7.0,96,0.00,,,0.00,Wunderground v.1.15,2013-03-06 12:56:00,
2013-03-06 07:57:00,29.4,28.4,30.10,West,272,2.0,7.0,96,0.00,,,0.00,Wunderground v.1.15,2013-03-06 12:57:00,
2013-03-06 07:59:00,29.5,28.5,30.09,NE,49,2.0,14.0,96,0.00,,,0.00,Wunderground v.1.15,2013-03-06 12:59:00,
2013-03-06 08:01:00,29.4,28.4,30.09,ENE,74,4.0,4.0,96,0.00,,,0.00,Wunderground v.1.15,2013-03-06 13:01:00,
2013-03-06 08:02:00,29.4,28.4,30.09,West,269,2.0,6.0,96,0.00,,,0.00,Wunderground v.1.15,2013-03-06 13:02:00,
2013-03-06 08:05:00,29.4,28.4,30.09,ENE,63,6.0,10.0,96,0.00,,,0.00,Wunderground v.1.15,2013-03-06 13:05:00,
2013-03-06 08:06:00,29.5,28.5,30.09,NNW,348,9.0,10.0,96,0.00,,,0.00,Wunderground v.1.15,2013-03-06 13:06:00,
2013-03-06 08:07:00,29.4,28.4,30.09,NNE,15,2.0,10.0,96,0.00,,,0.00,Wunderground v.1.15,2013-03-06 13:07:00,
2013-03-06 08:10:00,29.4,28.4,30.09,South,182,3.0,6.0,96,0.00,,,0.00,Wunderground v.1.15,2013-03-06 13:10:00,
2013-03-06 08:11:00,29.4,28.4,30.09,West,279,4.0,6.0,96,0.00,,,0.00,Wunderground v.1.15,2013-03-06 13:11:00,
2013-03-06 08:12:00,29.4,28.4,30.09,East,93,6.0,6.0,96,0.00,,,0.00,Wunderground v.1.15,2013-03-06 13:12:00,
2013-03-06 08:16:00,29.5,28.5,30.09,North,5,2.0,7.0,96,0.00,,,0.00,Wunderground v.1.15,2013-03-06 13:16:00,
2013-03-06 08:17:00,29.5,28.5,30.09,SW,219,8.0,8.0,96,0.00,,,0.00,Wunderground v.1.15,2013-03-06 13:17:00,
2013-03-06 08:21:00,29.5,28.5,30.09,NE,46,13.0,14.0,96,0.00,,,0.00,Wunderground v.1.15,2013-03-06 13:21:00,
2013-03-06 08:22:00,29.5,28.5,30.09,North,11,4.0,14.0,96,0.00,,,0.00,Wunderground v.1.15,2013-03-06 13:22:00,
2013-03-06 08:23:00,29.5,28.5,30.10,ENE,67,1.0,14.0,96,0.00,,,0.00,Wunderground v.1.15,2013-03-06 13:23:00,
2013-03-06 08:26:00,29.5,28.5,30.09,NE,47,7.0,14.0,96,0.00,,,0.00,Wunderground v.1.15,2013-03-06 13:26:00,
2013-03-06 08:27:00,29.5,28.5,30.09,ENE,59,3.0,14.0,96,0.00,,,0.00,Wunderground v.1.15,2013-03-06 13:27:00,
2013-03-06 08:28:00,29.5,28.5,30.09,NNE,30,3.0,14.0,96,0.00,,,0.00,Wunderground v.1.15,2013-03-06 13:28:00,
2013-03-06 08:32:00,29.5,28.5,30.09,NW,324,2.0,15.0,96,0.00,,,0.00,Wunderground v.1.15,2013-03-06 13:32:00,
2013-03-06 08:33:00,29.6,28.6,30.09,WSW,246,2.0,15.0,96,0.00,,,0.00,Wunderground v.1.15,2013-03-06 13:33:00,
2013-03-06 08:37:00,29.5,28.5,30.09,NNW,347,5.0,15.0,96,0.00,,,0.00,Wunderground v.1.15,2013-03-06 13:37:00,
2013-03-06 08:38:00,29.5,28.5,30.09,East,101,11.0,15.0,96,0.00,,,0.00,Wunderground v.1.15,2013-03-06 13:38:00,
2013-03-06 08:42:00,29.5,28.5,30.09,NE,56,6.0,11.0,96,0.00,,,0.00,Wunderground v.1.15,2013-03-06 13:42:00,
2013-03-06 08:43:00,29.5,28.5,30.09,NE,40,2.0,11.0,96,0.00,,,0.00,Wunderground v.1.15,2013-03-06 13:43:00,
2013-03-06 08:47:00,29.4,28.4,30.09,NE,43,9.0,18.0,96,0.00,,,0.00,Wunderground v.1.15,2013-03-06 13:47:00,
2013-03-06 08:48:00,29.5,28.5,30.09,NNW,346,4.0,18.0,96,0.00,,,0.00,Wunderground v.1.15,2013-03-06 13:48:00,
2013-03-06 08:53:00,29.5,28.5,30.09,WNW,292,5.0,9.0,96,0.00,,,0.00,Wunderground v.1.15,2013-03-06 13:53:00,
2013-03-06 08:54:00,29.5,28.5,30.09,East,80,8.0,16.0,96,0.00,,,0.00,Wunderground v.1.15,2013-03-06 13:54:00,
2013-03-06 08:58:00,29.5,28.5,30.08,NNE,31,6.0,21.0,96,0.00,,,0.00,Wunderground v.1.15,2013-03-06 13:58:00,
2013-03-06 08:59:00,29.5,28.5,30.09,North,5,7.0,21.0,96,0.00,,,0.00,Wunderground v.1.15,2013-03-06 13:59:00,
2013-03-06 09:03:00,29.5,28.5,30.09,North,360,7.0,14.0,96,0.00,,,0.00,Wunderground v.1.15,2013-03-06 14:03:00,
2013-03-06 09:04:00,29.5,28.5,30.08,NNE,19,2.0,14.0,96,0.00,,,0.00,Wunderground v.1.15,2013-03-06 14:04:00,
2013-03-06 09:05:00,29.5,28.5,30.09,NW,311,3.0,14.0,96,0.00,,,0.00,Wunderground v.1.15,2013-03-06 14:05:00,
2013-03-06 09:08:00,29.5,28.5,30.09,NNE,32,7.0,14.0,96,0.00,,,0.00,Wunderground v.1.15,2013-03-06 14:08:00,
2013-03-06 09:09:00,29.5,28.5,30.08,NW,304,5.0,14.0,96,0.00,,,0.00,Wunderground v.1.15,2013-03-06 14:09:00,
2013-03-06 09:10:00,29.5,28.5,30.09,ENE,71,10.0,10.0,96,0.00,,,0.00,Wunderground v.1.15,2013-03-06 14:10:00,
2013-03-06 09:13:00,29.5,28.5,30.09,ESE,107,8.0,11.0,96,0.00,,,0.00,Wunderground v.1.15,2013-03-06 14:13:00,
2013-03-06 09:14:00,29.5,28.5,30.09,NNE,22,12.0,15.0,96,0.00,,,0.00,Wunderground v.1.15,2013-03-06 14:14:00,
2013-03-06 09:15:00,29.5,28.5,30.09,NNE,28,10.0,15.0,96,0.00,,,0.00,Wunderground v.1.15,2013-03-06 14:15:00,
2013-03-06 09:18:00,29.4,28.4,30.09,NW,315,4.0,15.0,96,0.00,,,0.00,Wunderground v.1.15,2013-03-06 14:18:00,
2013-03-06 09:19:00,29.5,28.5,30.09,NW,325,2.0,15.0,96,0.00,,,0.00,Wunderground v.1.15,2013-03-06 14:19:00,
2013-03-06 09:20:00,29.4,28.4,30.09,WNW,282,4.0,5.0,96,0.00,,,0.00,Wunderground v.1.15,2013-03-06 14:20:00,
2013-03-06 09:24:00,29.4,28.4,30.09,WNW,302,6.0,10.0,96,0.00,,,0.00,Wunderground v.1.15,2013-03-06 14:24:00,
2013-03-06 09:25:00,29.4,28.4,30.09,NNE,22,3.0,10.0,96,0.00,,,0.00,Wunderground v.1.15,2013-03-06 14:25:00,
2013-03-06 09:29:00,29.4,28.4,30.08,North,11,4.0,15.0,96,0.00,,,0.00,Wunderground v.1.15,2013-03-06 14:29:00,
2013-03-06 09:30:00,29.4,28.4,30.09,WNW,302,6.0,6.0,96,0.00,,,0.00,Wunderground v.1.15,2013-03-06 14:30:00,
2013-03-06 09:34:00,29.4,28.4,30.09,NE,52,6.0,13.0,96,0.00,,,0.00,Wunderground v.1.15,2013-03-06 14:34:00,
2013-03-06 09:35:00,29.4,28.4,30.09,NE,46,7.0,13.0,96,0.00,,,0.00,Wunderground v.1.15,2013-03-06 14:35:00,
2013-03-06 09:39:00,29.4,28.4,30.09,NE,46,0.0,13.0,96,0.00,,,0.00,Wunderground v.1.15,2013-03-06 14:39:00,
2013-03-06 09:40:00,29.4,28.4,30.09,NE,53,8.0,11.0,96,0.00,,,0.00,Wunderground v.1.15,2013-03-06 14:40:00,
2013-03-06 09:41:00,29.4,28.4,30.09,NNW,348,5.0,11.0,96,0.00,,,0.00,Wunderground v.1.15,2013-03-06 14:41:00,
2013-03-06 09:44:00,29.4,28.4,30.09,NE,40,4.0,11.0,96,0.00,,,0.00,Wunderground v.1.15,2013-03-06 14:44:00,
2013-03-06 09:45:00,29.4,28.4,30.09,ENE,63,4.0,11.0,96,0.00,,,0.00,Wunderground v.1.15,2013-03-06 14:45:00,
2013-03-06 09:46:00,29.4,28.4,30.09,NNW,338,1.0,11.0,96,0.00,,,0.00,Wunderground v.1.15,2013-03-06 14:46:00,
2013-03-06 09:49:00,29.4,28.4,30.09,WNW,298,6.0,11.0,96,0.00,,,0.00,Wunderground v.1.15,2013-03-06 14:49:00,
2013-03-06 09:50:00,29.4,28.1,30.09,ENE,61,6.0,10.0,95,0.00,,,0.00,Wunderground v.1.15,2013-03-06 14:50:00,
2013-03-06 09:52:00,29.4,28.1,30.09,NNE,26,0.0,10.0,95,0.00,,,0.00,Wunderground v.1.15,2013-03-06 14:52:00,
2013-03-06 09:54:00,29.4,28.1,30.09,WSW,241,2.0,10.0,95,0.00,,,0.00,Wunderground v.1.15,2013-03-06 14:54:00,
2013-03-06 09:56:00,29.4,28.1,30.09,NNE,19,1.0,10.0,95,0.00,,,0.00,Wunderground v.1.15,2013-03-06 14:56:00,
2013-03-06 09:57:00,29.5,28.2,30.09,NNW,333,2.0,10.0,95,0.00,,,0.00,Wunderground v.1.15,2013-03-06 14:57:00,
2013-03-06 09:59:00,29.5,28.2,30.09,North,360,4.0,11.0,95,0.00,,,0.00,Wunderground v.1.15,2013-03-06 14:59:00,
2013-03-06 10:01:00,29.5,28.2,30.09,ENE,78,2.0,9.0,95,0.00,,,0.00,Wunderground v.1.15,2013-03-06 15:01:00,
2013-03-06 10:02:00,29.5,28.2,30.09,NNW,344,3.0,9.0,95,0.00,,,0.00,Wunderground v.1.15,2013-03-06 15:02:00,
2013-03-06 10:04:00,29.4,28.1,30.09,NNE,16,6.0,12.0,95,0.00,,,0.00,Wunderground v.1.15,2013-03-06 15:04:00,
2013-03-06 10:06:00,29.4,28.1,30.10,NNE,26,4.0,12.0,95,0.00,,,0.00,Wunderground v.1.15,2013-03-06 15:06:00,
2013-03-06 10:07:00,29.4,28.1,30.09,ENE,57,12.0,12.0,95,0.00,,,0.00,Wunderground v.1.15,2013-03-06 15:07:00,
2013-03-06 10:10:00,29.4,28.1,30.09,West,273,5.0,12.0,95,0.00,,,0.00,Wunderground v.1.15,2013-03-06 15:10:00,
2013-03-06 10:12:00,29.4,28.1,30.10,NE,56,1.0,5.0,95,0.00,,,0.00,Wunderground v.1.15,2013-03-06 15:12:00,
2013-03-06 10:15:00,29.4,28.1,30.10,NNW,348,9.0,9.0,95,0.00,,,0.00,Wunderground v.1.15,2013-03-06 15:15:00,
2013-03-06 10:17:00,29.4,28.1,30.10,NNE,31,1.0,9.0,95,0.00,,,0.00,Wunderground v.1.15,2013-03-06 15:17:00,
2013-03-06 10:18:00,29.4,28.1,30.10,NNE,31,1.0,9.0,95,0.00,,,0.00,Wunderground v.1.15,2013-03-06 15:18:00,
2013-03-06 10:20:00,29.4,28.1,30.10,NW,304,2.0,3.0,95,0.00,,,0.00,Wunderground v.1.15,2013-03-06 15:20:00,
2013-03-06 10:22:00,29.4,28.1,30.09,NW,324,7.0,7.0,95,0.00,,,0.00,Wunderground v.1.15,2013-03-06 15:22:00,
2013-03-06 10:23:00,29.4,28.1,30.10,NNW,348,11.0,16.0,95,0.00,,,0.00,Wunderground v.1.15,2013-03-06 15:23:00,
2013-03-06 10:25:00,29.3,28.0,30.09,East,84,11.0,16.0,95,0.00,,,0.00,Wunderground v.1.15,2013-03-06 15:25:00,
2013-03-06 10:27:00,29.3,27.8,30.10,ENE,73,11.0,16.0,94,0.00,,,0.00,Wunderground v.1.15,2013-03-06 15:27:00,
2013-03-06 10:28:00,29.3,27.8,30.10,NNE,13,3.0,16.0,94,0.00,,,0.00,Wunderground v.1.15,2013-03-06 15:28:00,
2013-03-06 10:31:00,29.3,27.8,30.10,WNW,298,2.0,5.0,94,0.00,,,0.00,Wunderground v.1.15,2013-03-06 15:31:00,
2013-03-06 10:33:00,29.3,27.8,30.10,NE,56,5.0,14.0,94,0.00,,,0.00,Wunderground v.1.15,2013-03-06 15:33:00,
2013-03-06 10:34:00,29.3,27.8,30.10,North,355,3.0,14.0,94,0.00,,,0.00,Wunderground v.1.15,2013-03-06 15:34:00,
2013-03-06 10:36:00,29.3,27.8,30.10,North,5,2.0,15.0,94,0.00,,,0.00,Wunderground v.1.15,2013-03-06 15:36:00,
2013-03-06 10:38:00,29.3,27.8,30.09,NE,49,4.0,15.0,94,0.00,,,0.00,Wunderground v.1.15,2013-03-06 15:38:00,
2013-03-06 10:39:00,29.4,27.9,30.09,NNE,22,5.0,15.0,94,0.00,,,0.00,Wunderground v.1.15,2013-03-06 15:39:00,
2013-03-06 10:41:00,29.4,27.6,30.10,East,89,6.0,13.0,93,0.00,,,0.00,Wunderground v.1.15,2013-03-06 15:41:00,
2013-03-06 10:43:00,29.4,27.6,30.10,North,355,2.0,13.0,93,0.00,,,0.00,Wunderground v.1.15,2013-03-06 15:43:00,
2013-03-06 10:45:00,29.4,27.6,30.10,ESE,118,7.0,13.0,93,0.00,,,0.00,Wunderground v.1.15,2013-03-06 15:45:00,
2013-03-06 10:46:00,29.5,27.7,30.10,NNE,19,7.0,14.0,93,0.00,,,0.00,Wunderground v.1.15,2013-03-06 15:46:00,
2013-03-06 10:48:00,29.5,27.7,30.10,NNW,345,3.0,14.0,93,0.00,,,0.00,Wunderground v.1.15,2013-03-06 15:48:00,
2013-03-06 10:49:00,29.4,27.6,30.10,NNW,337,2.0,14.0,93,0.00,,,0.00,Wunderground v.1.15,2013-03-06 15:49:00,
2013-03-06 10:50:00,29.5,27.7,30.10,East,101,7.0,7.0,93,0.00,,,0.00,Wunderground v.1.15,2013-03-06 15:50:00,
2013-03-06 10:52:00,29.5,27.7,30.10,West,276,2.0,7.0,93,0.00,,,0.00,Wunderground v.1.15,2013-03-06 15:52:00,
2013-03-06 10:53:00,29.5,27.7,30.10,NNE,21,6.0,14.0,93,0.00,,,0.00,Wunderground v.1.15,2013-03-06 15:53:00,
2013-03-06 10:54:00,29.6,27.8,30.10,NE,51,8.0,14.0,93,0.00,,,0.00,Wunderground v.1.15,2013-03-06 15:54:00,
2013-03-06 10:55:00,29.6,27.8,30.10,NNE,32,4.0,14.0,93,0.00,,,0.00,Wunderground v.1.15,2013-03-06 15:55:00,
2013-03-06 10:57:00,29.6,27.6,30.10,North,5,14.0,14.0,92,0.00,,,0.00,Wunderground v.1.15,2013-03-06 15:57:00,
2013-03-06 10:58:00,29.5,27.5,30.10,NW,325,4.0,14.0,92,0.00,,,0.00,Wunderground v.1.15,2013-03-06 15:58:00,
2013-03-06 10:59:00,29.5,27.5,30.10,NE,49,6.0,14.0,92,0.00,,,0.00,Wunderground v.1.15,2013-03-06 15:59:00,
2013-03-06 11:01:00,29.5,27.5,30.10,North,360,6.0,11.0,92,0.00,,,0.00,Wunderground v.1.15,2013-03-06 16:01:00,
2013-03-06 11:02:00,29.5,27.5,30.10,NW,324,8.0,11.0,92,0.00,,,0.00,Wunderground v.1.15,2013-03-06 16:02:00,
2013-03-06 11:04:00,29.5,27.5,30.10,NE,55,4.0,11.0,92,0.00,,,0.00,Wunderground v.1.15,2013-03-06 16:04:00,
2013-03-06 11:06:00,29.4,27.4,30.10,ENE,75,5.0,18.0,92,0.00,,,0.00,Wunderground v.1.15,2013-03-06 16:06:00,
2013-03-06 11:07:00,29.4,27.4,30.10,ENE,78,3.0,22.0,92,0.00,,,0.00,Wunderground v.1.15,2013-03-06 16:07:00,
2013-03-06 11:09:00,29.4,27.4,30.10,NNE,28,12.0,22.0,92,0.00,,,0.00,Wunderground v.1.15,2013-03-06 16:09:00,
2013-03-06 11:11:00,29.5,27.2,30.10,ENE,67,3.0,13.0,91,0.00,,,0.00,Wunderground v.1.15,2013-03-06 16:11:00,
2013-03-06 11:12:00,29.5,27.2,30.10,NNE,26,4.0,13.0,91,0.00,,,0.00,Wunderground v.1.15,2013-03-06 16:12:00,
2013-03-06 11:14:00,29.6,27.3,30.09,NNW,336,9.0,15.0,91,0.00,,,0.00,Wunderground v.1.15,2013-03-06 16:14:00,
2013-03-06 11:15:00,29.7,27.4,30.09,NE,38,3.0,15.0,91,0.00,,,0.00,Wunderground v.1.15,2013-03-06 16:15:00,
2013-03-06 11:16:00,29.7,27.4,30.10,ENE,72,10.0,15.0,91,0.00,,,0.00,Wunderground v.1.15,2013-03-06 16:16:00,
2013-03-06 11:17:00,29.8,27.2,30.09,East,96,2.0,15.0,90,0.00,,,0.00,Wunderground v.1.15,2013-03-06 16:17:00,
2013-03-06 11:20:00,29.8,27.2,30.10,NW,310,3.0,15.0,90,0.00,,,0.00,Wunderground v.1.15,2013-03-06 16:20:00,
2013-03-06 11:21:00,29.9,27.3,30.09,NNW,332,6.0,9.0,90,0.00,,,0.00,Wunderground v.1.15,2013-03-06 16:21:00,
2013-03-06 11:23:00,29.9,27.3,30.09,NE,44,3.0,9.0,90,0.00,,,0.00,Wunderground v.1.15,2013-03-06 16:23:00,
2013-03-06 11:25:00,30.0,27.4,30.09,East,88,1.0,10.0,90,0.00,,,0.00,Wunderground v.1.15,2013-03-06 16:25:00,
2013-03-06 11:26:00,30.0,27.4,30.09,North,355,1.0,10.0,90,0.00,,,0.00,Wunderground v.1.15,2013-03-06 16:26:00,
2013-03-06 11:27:00,30.0,27.4,30.10,North,11,3.0,10.0,90,0.00,,,0.00,Wunderground v.1.15,2013-03-06 16:27:00,
2013-03-06 11:28:00,30.0,27.4,30.10,NE,50,5.0,10.0,90,0.00,,,0.00,Wunderground v.1.15,2013-03-06 16:28:00,
2013-03-06 11:30:00,30.0,27.2,30.09,NE,49,1.0,4.0,89,0.00,,,0.00,Wunderground v.1.15,2013-03-06 16:30:00,
2013-03-06 11:31:00,30.1,27.5,30.10,North,360,11.0,11.0,90,0.00,,,0.00,Wunderground v.1.15,2013-03-06 16:31:00,
2013-03-06 11:32:00,30.2,27.3,30.09,North,9,9.0,15.0,89,0.00,,,0.00,Wunderground v.1.15,2013-03-06 16:32:00,
2013-03-06 11:33:00,30.1,27.3,30.09,NE,41,4.0,15.0,89,0.00,,,0.00,Wunderground v.1.15,2013-03-06 16:33:00,
2013-03-06 11:35:00,30.2,27.3,30.09,North,9,17.0,17.0,89,0.00,,,0.00,Wunderground v.1.15,2013-03-06 16:35:00,
2013-03-06 11:37:00,30.1,27.3,30.09,NNW,344,5.0,17.0,89,0.00,,,0.00,Wunderground v.1.15,2013-03-06 16:37:00,
2013-03-06 11:38:00,30.1,27.3,30.09,NE,40,4.0,17.0,89,0.00,,,0.00,Wunderground v.1.15,2013-03-06 16:38:00,
2013-03-06 11:41:00,30.1,27.3,30.09,NW,321,3.0,6.0,89,0.00,,,0.00,Wunderground v.1.15,2013-03-06 16:41:00,
2013-03-06 11:42:00,30.1,27.3,30.09,NNW,346,9.0,9.0,89,0.00,,,0.00,Wunderground v.1.15,2013-03-06 16:42:00,
2013-03-06 11:43:00,30.1,27.3,30.09,NE,44,3.0,9.0,89,0.00,,,0.00,Wunderground v.1.15,2013-03-06 16:43:00,
2013-03-06 11:46:00,30.1,27.3,30.09,ENE,57,16.0,17.0,89,0.00,,,0.00,Wunderground v.1.15,2013-03-06 16:46:00,
2013-03-06 11:47:00,30.1,27.0,30.09,ENE,58,8.0,17.0,88,0.00,,,0.00,Wunderground v.1.15,2013-03-06 16:47:00,
2013-03-06 11:48:00,30.1,27.0,30.09,East,87,1.0,22.0,88,0.00,,,0.00,Wunderground v.1.15,2013-03-06 16:48:00,
2013-03-06 11:51:00,30.2,27.1,30.09,ESE,115,5.0,11.0,88,0.00,,,0.00,Wunderground v.1.15,2013-03-06 16:51:00,
2013-03-06 11:52:00,30.3,27.2,30.09,East,95,1.0,11.0,88,0.00,,,0.00,Wunderground v.1.15,2013-03-06 16:52:00,
2013-03-06 11:53:00,30.3,26.9,30.09,North,355,10.0,15.0,87,0.00,,,0.00,Wunderground v.1.15,2013-03-06 16:53:00,
2013-03-06 11:54:00,30.4,27.0,30.09,ESE,105,8.0,15.0,87,0.00,,,0.00,Wunderground v.1.15,2013-03-06 16:54:00,
2013-03-06 11:56:00,30.4,27.0,30.09,WSW,252,0.0,15.0,87,0.00,,,0.00,Wunderground v.1.15,2013-03-06 16:56:00,
2013-03-06 11:57:00,30.3,26.9,30.09,NE,36,10.0,19.0,87,0.00,,,0.00,Wunderground v.1.15,2013-03-06 16:57:00,
2013-03-06 11:58:00,30.3,26.9,30.09,ENE,59,3.0,19.0,87,0.00,,,0.00,Wunderground v.1.15,2013-03-06 16:58:00,
2013-03-06 11:59:00,30.3,26.9,30.09,NE,40,1.0,19.0,87,0.00,,,0.00,Wunderground v.1.15,2013-03-06 16:59:00,
2013-03-06 12:01:00,30.3,26.9,30.09,NNE,19,0.0,7.0,87,0.00,,,0.00,Wunderground v.1.15,2013-03-06 17:01:00,
2013-03-06 12:02:00,30.2,27.1,30.09,ESE,104,9.0,17.0,88,0.00,,,0.00,Wunderground v.1.15,2013-03-06 17:02:00,
2013-03-06 12:04:00,30.1,26.7,30.09,ENE,78,11.0,17.0,87,0.00,,,0.00,Wunderground v.1.15,2013-03-06 17:04:00,
2013-03-06 12:06:00,30.0,26.6,30.09,North,355,7.0,17.0,87,0.00,,,0.00,Wunderground v.1.15,2013-03-06 17:06:00,
2013-03-06 12:07:00,30.0,26.6,30.09,NNW,329,7.0,17.0,87,0.00,,,0.00,Wunderground v.1.15,2013-03-06 17:07:00,
2013-03-06 12:09:00,29.9,26.5,30.09,North,355,3.0,22.0,87,0.00,,,0.00,Wunderground v.1.15,2013-03-06 17:09:00,
2013-03-06 12:10:00,29.9,26.8,30.09,NE,43,11.0,11.0,88,0.00,,,0.00,Wunderground v.1.15,2013-03-06 17:10:00,
2013-03-06 12:12:00,29.8,26.4,30.09,North,360,8.0,11.0,87,0.00,,,0.00,Wunderground v.1.15,2013-03-06 17:12:00,
2013-03-06 12:15:00,29.7,26.6,30.09,NE,41,3.0,13.0,88,0.00,,,0.00,Wunderground v.1.15,2013-03-06 17:15:00,
2013-03-06 12:16:00,29.7,26.6,30.10,NE,39,8.0,13.0,88,0.00,,,0.00,Wunderground v.1.15,2013-03-06 17:16:00,
2013-03-06 12:17:00,29.7,26.6,30.10,North,5,6.0,13.0,88,0.00,,,0.00,Wunderground v.1.15,2013-03-06 17:17:00,
2013-03-06 12:18:00,29.6,26.5,30.10,North,360,5.0,13.0,88,0.00,,,0.00,Wunderground v.1.15,2013-03-06 17:18:00,
2013-03-06 12:20:00,29.6,26.8,30.09,NE,44,7.0,20.0,89,0.00,,,0.00,Wunderground v.1.15,2013-03-06 17:20:00,
2013-03-06 12:21:00,29.6,26.8,30.10,NE,51,5.0,20.0,89,0.00,,,0.00,Wunderground v.1.15,2013-03-06 17:21:00,
2013-03-06 12:22:00,29.5,26.7,30.10,North,5,2.0,20.0,89,0.00,,,0.00,Wunderground v.1.15,2013-03-06 17:22:00,
2013-03-06 12:23:00,29.5,26.7,30.10,WNW,302,3.0,20.0,89,0.00,,,0.00,Wunderground v.1.15,2013-03-06 17:23:00,
2013-03-06 12:26:00,29.5,26.7,30.09,NE,49,4.0,20.0,89,0.00,,,0.00,Wunderground v.1.15,2013-03-06 17:26:00,
2013-03-06 12:27:00,29.5,26.7,30.09,NE,36,1.0,20.0,89,0.00,,,0.00,Wunderground v.1.15,2013-03-06 17:27:00,
2013-03-06 12:28:00,29.5,26.7,30.09,NE,54,11.0,20.0,89,0.00,,,0.00,Wunderground v.1.15,2013-03-06 17:28:00,
2013-03-06 12:31:00,29.5,26.7,30.09,ESE,123,14.0,14.0,89,0.00,,,0.00,Wunderground v.1.15,2013-03-06 17:31:00,
2013-03-06 12:32:00,29.5,26.7,30.09,NE,34,4.0,15.0,89,0.00,,,0.00,Wunderground v.1.15,2013-03-06 17:32:00,
2013-03-06 12:33:00,29.5,26.7,30.10,ESE,105,4.0,15.0,89,0.00,,,0.00,Wunderground v.1.15,2013-03-06 17:33:00,
2013-03-06 12:36:00,29.4,26.3,30.09,North,355,4.0,19.0,88,0.00,,,0.00,Wunderground v.1.15,2013-03-06 17:36:00,
2013-03-06 12:38:00,29.4,26.6,30.10,South,177,12.0,19.0,89,0.00,,,0.00,Wunderground v.1.15,2013-03-06 17:38:00,
2013-03-06 12:41:00,29.3,26.2,30.10,WNW,291,5.0,14.0,88,0.00,,,0.00,Wunderground v.1.15,2013-03-06 17:41:00,
2013-03-06 12:42:00,29.3,26.2,30.09,WNW,291,1.0,14.0,88,0.00,,,0.00,Wunderground v.1.15,2013-03-06 17:42:00,
2013-03-06 12:43:00,29.3,26.5,30.09,ENE,68,6.0,14.0,89,0.00,,,0.00,Wunderground v.1.15,2013-03-06 17:43:00,
2013-03-06 12:44:00,29.3,26.5,30.10,NNE,14,9.0,14.0,89,0.00,,,0.00,Wunderground v.1.15,2013-03-06 17:44:00,
2013-03-06 12:46:00,29.2,26.4,30.10,NW,311,3.0,14.0,89,0.00,,,0.00,Wunderground v.1.15,2013-03-06 17:46:00,
2013-03-06 12:47:00,29.2,26.4,30.10,WNW,303,5.0,14.0,89,0.00,,,0.00,Wunderground v.1.15,2013-03-06 17:47:00,
2013-03-06 12:48:00,29.2,26.4,30.10,ESE,115,0.0,14.0,89,0.00,,,0.00,Wunderground v.1.15,2013-03-06 17:48:00,
2013-03-06 12:49:00,29.2,26.4,30.10,NNW,347,4.0,14.0,89,0.00,,,0.00,Wunderground v.1.15,2013-03-06 17:49:00,
2013-03-06 12:52:00,29.1,26.5,30.10,ENE,69,2.0,11.0,90,0.00,,,0.00,Wunderground v.1.15,2013-03-06 17:52:00,
2013-03-06 12:53:00,29.1,26.5,30.10,NE,50,7.0,14.0,90,0.00,,,0.00,Wunderground v.1.15,2013-03-06 17:53:00,
2013-03-06 12:54:00,29.1,26.5,30.10,NNW,342,9.0,14.0,90,0.00,,,0.00,Wunderground v.1.15,2013-03-06 17:54:00,
2013-03-06 12:57:00,29.0,26.7,30.10,East,98,6.0,14.0,91,0.00,,,0.00,Wunderground v.1.15,2013-03-06 17:57:00,
2013-03-06 12:58:00,29.1,26.8,30.10,North,9,8.0,14.0,91,0.00,,,0.00,Wunderground v.1.15,2013-03-06 17:58:00,
2013-03-06 12:59:00,29.1,26.8,30.10,NNW,344,3.0,14.0,91,0.00,,,0.00,Wunderground v.1.15,2013-03-06 17:59:00,
2013-03-06 13:02:00,29.3,27.0,30.10,NNE,27,8.0,11.0,91,0.00,,,0.00,Wunderground v.1.15,2013-03-06 18:02:00,
2013-03-06 13:03:00,29.3,26.7,30.10,ENE,65,8.0,11.0,90,0.00,,,0.00,Wunderground v.1.15,2013-03-06 18:03:00,
2013-03-06 13:04:00,29.3,26.7,30.10,NW,324,5.0,17.0,90,0.00,,,0.00,Wunderground v.1.15,2013-03-06 18:04:00,
2013-03-06 13:07:00,29.6,27.0,30.10,NE,51,12.0,17.0,90,0.00,,,0.00,Wunderground v.1.15,2013-03-06 18:07:00,
2013-03-06 13:08:00,29.6,26.8,30.10,ENE,59,5.0,17.0,89,0.00,,,0.00,Wunderground v.1.15,2013-03-06 18:08:00,
2013-03-06 13:09:00,29.7,26.9,30.09,NNE,32,9.0,17.0,89,0.00,,,0.00,Wunderground v.1.15,2013-03-06 18:09:00,
2013-03-06 13:12:00,29.8,26.4,30.09,NNE,32,7.0,17.0,87,0.00,,,0.00,Wunderground v.1.15,2013-03-06 18:12:00,
2013-03-06 13:14:00,29.9,26.5,30.09,NNW,331,12.0,17.0,87,0.00,,,0.00,Wunderground v.1.15,2013-03-06 18:14:00,
2013-03-06 13:15:00,30.0,26.3,30.09,NNW,348,6.0,17.0,86,0.00,,,0.00,Wunderground v.1.15,2013-03-06 18:15:00,
2013-03-06 13:18:00,30.2,26.5,30.10,NW,325,3.0,17.0,86,0.00,,,0.00,Wunderground v.1.15,2013-03-06 18:18:00,
2013-03-06 13:19:00,30.2,26.5,30.09,North,355,4.0,17.0,86,0.00,,,0.00,Wunderground v.1.15,2013-03-06 18:19:00,
2013-03-06 13:20:00,30.3,26.6,30.10,North,355,2.0,17.0,86,0.00,,,0.00,Wunderground v.1.15,2013-03-06 18:20:00,
2013-03-06 13:23:00,30.3,26.6,30.10,NNE,22,3.0,12.0,86,0.00,,,0.00,Wunderground v.1.15,2013-03-06 18:23:00,
2013-03-06 13:24:00,30.3,26.3,30.09,North,355,2.0,13.0,85,0.00,,,0.00,Wunderground v.1.15,2013-03-06 18:24:00,
2013-03-06 13:25:00,30.3,26.3,30.10,NNW,330,4.0,13.0,85,0.00,,,0.00,Wunderground v.1.15,2013-03-06 18:25:00,
2013-03-06 13:29:00,30.3,26.3,30.09,NNE,28,4.0,20.0,85,0.00,,,0.00,Wunderground v.1.15,2013-03-06 18:29:00,
2013-03-06 13:30:00,30.3,26.0,30.09,WNW,298,2.0,6.0,84,0.00,,,0.00,Wunderground v.1.15,2013-03-06 18:30:00,
2013-03-06 13:34:00,30.3,26.0,30.09,NNE,15,13.0,14.0,84,0.00,,,0.00,Wunderground v.1.15,2013-03-06 18:34:00,
2013-03-06 13:35:00,30.3,26.0,30.09,NE,34,9.0,14.0,84,0.00,,,0.00,Wunderground v.1.15,2013-03-06 18:35:00,
2013-03-06 13:36:00,30.2,25.9,30.09,NE,46,6.0,14.0,84,0.00,,,0.00,Wunderground v.1.15,2013-03-06 18:36:00,
2013-03-06 13:39:00,30.3,26.3,30.10,NE,54,11.0,14.0,85,0.00,,,0.00,Wunderground v.1.15,2013-03-06 18:39:00,
2013-03-06 13:41:00,30.2,25.9,30.10,NE,40,4.0,8.0,84,0.00,,,0.00,Wunderground v.1.15,2013-03-06 18:41:00,
2013-03-06 13:44:00,30.2,26.2,30.10,WNW,299,3.0,10.0,85,0.00,,,0.00,Wunderground v.1.15,2013-03-06 18:44:00,
2013-03-06 13:46:00,30.1,26.1,30.10,NE,34,9.0,10.0,85,0.00,,,0.00,Wunderground v.1.15,2013-03-06 18:46:00,
2013-03-06 13:48:00,30.1,26.1,30.09,North,11,5.0,10.0,85,0.00,,,0.00,Wunderground v.1.15,2013-03-06 18:48:00,
2013-03-06 13:49:00,30.1,26.1,30.09,East,79,6.0,10.0,85,0.00,,,0.00,Wunderground v.1.15,2013-03-06 18:49:00,
2013-03-06 13:51:00,30.1,26.1,30.10,North,355,7.0,9.0,85,0.00,,,0.00,Wunderground v.1.15,2013-03-06 18:51:00,
2013-03-06 13:52:00,30.1,26.1,30.10,North,9,5.0,10.0,85,0.00,,,0.00,Wunderground v.1.15,2013-03-06 18:52:00,
2013-03-06 13:54:00,30.0,26.3,30.10,East,98,6.0,10.0,86,0.00,,,0.00,Wunderground v.1.15,2013-03-06 18:54:00,
2013-03-06 13:56:00,30.0,26.3,30.10,NE,42,6.0,11.0,86,0.00,,,0.00,Wunderground v.1.15,2013-03-06 18:56:00,
2013-03-06 13:57:00,29.9,26.2,30.09,NNE,25,3.0,11.0,86,0.00,,,0.00,Wunderground v.1.15,2013-03-06 18:57:00,
2013-03-06 13:59:00,29.9,26.2,30.10,NE,46,7.0,11.0,86,0.00,,,0.00,Wunderground v.1.15,2013-03-06 18:59:00,
2013-03-06 14:02:00,29.9,26.8,30.10,North,5,9.0,13.0,88,0.00,,,0.00,Wunderground v.1.15,2013-03-06 19:02:00,
2013-03-06 14:04:00,29.9,26.8,30.10,NNE,33,3.0,13.0,88,0.00,,,0.00,Wunderground v.1.15,2013-03-06 19:04:00,
2013-03-06 14:07:00,30.0,26.9,30.10,NNW,337,5.0,13.0,88,0.00,,,0.00,Wunderground v.1.15,2013-03-06 19:07:00,
2013-03-06 14:09:00,29.9,27.1,30.09,North,5,9.0,13.0,89,0.00,,,0.00,Wunderground v.1.15,2013-03-06 19:09:00,
2013-03-06 14:13:00,29.9,27.1,30.10,NNE,26,2.0,12.0,89,0.00,,,0.00,Wunderground v.1.15,2013-03-06 19:13:00,
2013-03-06 14:14:00,29.8,27.0,30.10,NNE,26,6.0,13.0,89,0.00,,,0.00,Wunderground v.1.15,2013-03-06 19:14:00,
2013-03-06 14:15:00,29.9,27.1,30.10,NNE,24,9.0,13.0,89,0.00,,,0.00,Wunderground v.1.15,2013-03-06 19:15:00,
2013-03-06 14:18:00,29.9,27.3,30.10,NNW,348,3.0,13.0,90,0.00,,,0.00,Wunderground v.1.15,2013-03-06 19:18:00,
2013-03-06 14:19:00,29.8,27.2,30.10,NW,319,5.0,13.0,90,0.00,,,0.00,Wunderground v.1.15,2013-03-06 19:19:00,
2013-03-06 14:20:00,29.8,27.2,30.10,West,275,4.0,13.0,90,0.00,,,0.00,Wunderground v.1.15,2013-03-06 19:20:00,
2013-03-06 14:23:00,29.8,27.2,30.10,NNW,330,6.0,8.0,90,0.00,,,0.00,Wunderground v.1.15,2013-03-06 19:23:00,
2013-03-06 14:25:00,29.7,27.1,30.10,NE,44,9.0,9.0,90,0.00,,,0.00,Wunderground v.1.15,2013-03-06 19:25:00,
2013-03-06 14:28:00,29.6,27.3,30.10,NE,34,6.0,9.0,91,0.00,,,0.00,Wunderground v.1.15,2013-03-06 19:28:00,
2013-03-06 14:30:00,29.6,27.3,30.10,NNE,19,6.0,11.0,91,0.00,,,0.00,Wunderground v.1.15,2013-03-06 19:30:00,
2013-03-06 14:33:00,29.7,27.1,30.10,North,9,4.0,15.0,90,0.00,,,0.00,Wunderground v.1.15,2013-03-06 19:33:00,
2013-03-06 14:35:00,29.7,27.1,30.10,North,5,8.0,19.0,90,0.00,,,0.00,Wunderground v.1.15,2013-03-06 19:35:00,
2013-03-06 14:39:00,29.7,27.1,30.10,North,360,6.0,19.0,90,0.00,,,0.00,Wunderground v.1.15,2013-03-06 19:39:00,
2013-03-06 14:40:00,29.7,27.1,30.10,NE,56,5.0,6.0,90,0.00,,,0.00,Wunderground v.1.15,2013-03-06 19:40:00,
2013-03-06 14:44:00,29.7,26.9,30.10,NE,47,8.0,17.0,89,0.00,,,0.00,Wunderground v.1.15,2013-03-06 19:44:00,
2013-03-06 14:45:00,29.7,26.9,30.10,ENE,70,6.0,17.0,89,0.00,,,0.00,Wunderground v.1.15,2013-03-06 19:45:00,
2013-03-06 14:49:00,29.9,27.1,30.10,NNE,17,3.0,17.0,89,0.00,,,0.00,Wunderground v.1.15,2013-03-06 19:49:00,
2013-03-06 14:50:00,29.9,27.1,30.10,North,5,13.0,13.0,89,0.00,,,0.00,Wunderground v.1.15,2013-03-06 19:50:00,
2013-03-06 14:51:00,29.9,27.1,30.10,NE,41,13.0,15.0,89,0.00,,,0.00,Wunderground v.1.15,2013-03-06 19:51:00,
2013-03-06 14:54:00,30.0,27.2,30.10,North,355,3.0,15.0,89,0.00,,,0.00,Wunderground v.1.15,2013-03-06 19:54:00,
2013-03-06 14:55:00,30.1,27.3,30.10,NNE,15,3.0,15.0,89,0.00,,,0.00,Wunderground v.1.15,2013-03-06 19:55:00,
2013-03-06 14:56:00,30.1,27.3,30.10,NE,35,7.0,15.0,89,0.00,,,0.00,Wunderground v.1.15,2013-03-06 19:56:00,
2013-03-06 15:00:00,30.1,27.3,30.10,NNE,12,10.0,13.0,89,0.00,,,0.00,Wunderground v.1.15,2013-03-06 20:00:00,
2013-03-06 15:01:00,30.2,27.3,30.10,NNE,28,10.0,13.0,89,0.00,,,0.00,Wunderground v.1.15,2013-03-06 20:01:00,
2013-03-06 15:05:00,30.0,26.9,30.10,NE,34,7.0,15.0,88,0.00,,,0.00,Wunderground v.1.15,2013-03-06 20:05:00,
2013-03-06 15:06:00,30.0,26.9,30.10,NNE,26,8.0,15.0,88,0.00,,,0.00,Wunderground v.1.15,2013-03-06 20:06:00,
2013-03-06 15:11:00,30.0,27.2,30.10,NNE,19,3.0,6.0,89,0.00,,,0.00,Wunderground v.1.15,2013-03-06 20:11:00,
2013-03-06 15:12:00,30.0,27.2,30.10,NNE,17,5.0,7.0,89,0.00,,,0.00,Wunderground v.1.15,2013-03-06 20:12:00,
2013-03-06 15:16:00,30.0,27.2,30.10,NNE,21,6.0,13.0,89,0.00,,,0.00,Wunderground v.1.15,2013-03-06 20:16:00,
2013-03-06 15:17:00,30.0,27.2,30.10,NE,53,5.0,13.0,89,0.00,,,0.00,Wunderground v.1.15,2013-03-06 20:17:00,
2013-03-06 15:21:00,29.9,27.1,30.10,ESE,102,2.0,7.0,89,0.00,,,0.00,Wunderground v.1.15,2013-03-06 20:21:00,
2013-03-06 15:22:00,29.9,27.1,30.10,NNW,340,4.0,7.0,89,0.00,,,0.00,Wunderground v.1.15,2013-03-06 20:22:00,
2013-03-06 15:26:00,29.8,27.0,30.10,North,9,9.0,20.0,89,0.00,,,0.00,Wunderground v.1.15,2013-03-06 20:26:00,
2013-03-06 15:27:00,29.8,27.0,30.10,East,97,5.0,20.0,89,0.00,,,0.00,Wunderground v.1.15,2013-03-06 20:27:00,
2013-03-06 15:31:00,29.7,26.9,30.10,NNW,348,11.0,17.0,89,0.00,,,0.00,Wunderground v.1.15,2013-03-06 20:31:00,
2013-03-06 15:32:00,29.6,26.8,30.10,NE,45,2.0,17.0,89,0.00,,,0.00,Wunderground v.1.15,2013-03-06 20:32:00,
2013-03-06 15:33:00,29.6,27.0,30.10,NNE,15,7.0,17.0,90,0.00,,,0.00,Wunderground v.1.15,2013-03-06 20:33:00,
2013-03-06 15:37:00,29.6,27.0,30.10,NNE,17,4.0,17.0,90,0.00,,,0.00,Wunderground v.1.15,2013-03-06 20:37:00,
2013-03-06 15:38:00,29.7,27.1,30.10,NE,44,9.0,17.0,90,0.00,,,0.00,Wunderground v.1.15,2013-03-06 20:38:00,
2013-03-06 15:42:00,29.7,27.1,30.10,ENE,63,6.0,7.0,90,0.00,,,0.00,Wunderground v.1.15,2013-03-06 20:42:00,
2013-03-06 15:43:00,29.7,27.1,30.10,ENE,63,3.0,8.0,90,0.00,,,0.00,Wunderground v.1.15,2013-03-06 20:43:00,
2013-03-06 15:44:00,29.8,27.2,30.10,NNE,27,15.0,15.0,90,0.00,,,0.00,Wunderground v.1.15,2013-03-06 20:44:00,
2013-03-06 15:47:00,29.8,27.2,30.10,East,88,5.0,15.0,90,0.00,,,0.00,Wunderground v.1.15,2013-03-06 20:47:00,
2013-03-06 15:48:00,29.8,27.2,30.10,North,355,7.0,15.0,90,0.00,,,0.00,Wunderground v.1.15,2013-03-06 20:48:00,
2013-03-06 15:49:00,29.8,27.2,30.10,NNW,343,2.0,15.0,90,0.00,,,0.00,Wunderground v.1.15,2013-03-06 20:49:00,
2013-03-06 15:52:00,29.9,27.3,30.10,NE,55,10.0,10.0,90,0.00,,,0.00,Wunderground v.1.15,2013-03-06 20:52:00,
2013-03-06 15:53:00,29.9,27.3,30.10,North,5,3.0,10.0,90,0.00,,,0.00,Wunderground v.1.15,2013-03-06 20:53:00,
2013-03-06 15:54:00,29.9,27.3,30.10,NNE,19,5.0,10.0,90,0.00,,,0.00,Wunderground v.1.15,2013-03-06 20:54:00,
2013-03-06 15:57:00,30.0,27.4,30.09,NNW,327,2.0,11.0,90,0.00,,,0.00,Wunderground v.1.15,2013-03-06 20:57:00,
2013-03-06 15:58:00,30.0,27.4,30.09,ENE,67,14.0,14.0,90,0.00,,,0.00,Wunderground v.1.15,2013-03-06 20:58:00,
2013-03-06 16:00:00,30.0,27.4,30.09,NNW,345,5.0,5.0,90,0.00,,,0.00,Wunderground v.1.15,2013-03-06 21:00:00,
2013-03-06 16:02:00,29.9,27.3,30.10,WNW,292,5.0,10.0,90,0.00,,,0.00,Wunderground v.1.15,2013-03-06 21:02:00,
2013-03-06 16:03:00,29.9,27.3,30.10,NNW,336,7.0,12.0,90,0.00,,,0.00,Wunderground v.1.15,2013-03-06 21:03:00,
2013-03-06 16:05:00,29.8,27.2,30.10,North,360,1.0,12.0,90,0.00,,,0.00,Wunderground v.1.15,2013-03-06 21:05:00,
2013-03-06 16:07:00,29.7,27.4,30.10,North,5,9.0,13.0,91,0.00,,,0.00,Wunderground v.1.15,2013-03-06 21:07:00,
2013-03-06 16:08:00,29.7,27.4,30.10,NNE,31,7.0,13.0,91,0.00,,,0.00,Wunderground v.1.15,2013-03-06 21:08:00,
2013-03-06 16:10:00,29.6,27.3,30.09,ENE,69,8.0,13.0,91,0.00,,,0.00,Wunderground v.1.15,2013-03-06 21:10:00,
2013-03-06 16:12:00,29.5,27.2,30.09,East,94,7.0,13.0,91,0.00,,,0.00,Wunderground v.1.15,2013-03-06 21:12:00,
2013-03-06 16:13:00,29.5,27.2,30.10,NE,52,5.0,13.0,91,0.00,,,0.00,Wunderground v.1.15,2013-03-06 21:13:00,
2013-03-06 16:14:00,29.4,27.1,30.10,NNE,24,2.0,13.0,91,0.00,,,0.00,Wunderground v.1.15,2013-03-06 21:14:00,
2013-03-06 16:15:00,29.4,27.4,30.10,NNE,13,2.0,13.0,92,0.00,,,0.00,Wunderground v.1.15,2013-03-06 21:15:00,
2013-03-06 16:17:00,29.4,27.1,30.10,NE,34,7.0,13.0,91,0.00,,,0.00,Wunderground v.1.15,2013-03-06 21:17:00,
2013-03-06 16:18:00,29.3,27.0,30.10,East,84,4.0,13.0,91,0.00,,,0.00,Wunderground v.1.15,2013-03-06 21:18:00,
2013-03-06 16:19:00,29.3,27.0,30.10,NNE,14,4.0,13.0,91,0.00,,,0.00,Wunderground v.1.15,2013-03-06 21:19:00,
2013-03-06 16:20:00,29.3,27.0,30.10,NW,311,3.0,5.0,91,0.00,,,0.00,Wunderground v.1.15,2013-03-06 21:20:00,
2013-03-06 16:23:00,29.3,27.0,30.10,WNW,296,1.0,13.0,91,0.00,,,0.00,Wunderground v.1.15,2013-03-06 21:23:00,
2013-03-06 16:24:00,29.3,27.0,30.10,ESE,115,7.0,13.0,91,0.00,,,0.00,Wunderground v.1.15,2013-03-06 21:24:00,
2013-03-06 16:25:00,29.3,27.0,30.09,NE,54,6.0,13.0,91,0.00,,,0.00,Wunderground v.1.15,2013-03-06 21:25:00,
2013-03-06 16:28:00,29.3,27.0,30.10,NW,307,3.0,13.0,91,0.00,,,0.00,Wunderground v.1.15,2013-03-06 21:28:00,
2013-03-06 16:29:00,29.3,27.0,30.10,North,5,2.0,13.0,91,0.00,,,0.00,Wunderground v.1.15,2013-03-06 21:29:00,
2013-03-06 16:30:00,29.3,27.0,30.10,NW,325,2.0,5.0,91,0.00,,,0.00,Wunderground v.1.15,2013-03-06 21:30:00,
2013-03-06 16:31:00,29.3,26.7,30.10,West,265,5.0,5.0,90,0.00,,,0.00,Wunderground v.1.15,2013-03-06 21:31:00,
2013-03-06 16:33:00,29.3,26.7,30.10,NE,38,9.0,15.0,90,0.00,,,0.00,Wunderground v.1.15,2013-03-06 21:33:00,
2013-03-06 16:34:00,29.3,26.7,30.10,NNE,18,4.0,15.0,90,0.00,,,0.00,Wunderground v.1.15,2013-03-06 21:34:00,
2013-03-06 16:35:00,29.4,26.8,30.10,NE,52,7.0,15.0,90,0.00,,,0.00,Wunderground v.1.15,2013-03-06 21:35:00,
2013-03-06 16:36:00,29.4,26.8,30.10,NNE,27,2.0,15.0,90,0.00,,,0.00,Wunderground v.1.15,2013-03-06 21:36:00,
2013-03-06 16:38:00,29.4,26.8,30.10,ENE,78,3.0,15.0,90,0.00,,,0.00,Wunderground v.1.15,2013-03-06 21:38:00,
2013-03-06 16:40:00,29.4,26.8,30.10,NE,44,3.0,6.0,90,0.00,,,0.00,Wunderground v.1.15,2013-03-06 21:40:00,
2013-03-06 16:41:00,29.4,26.6,30.10,East,80,13.0,17.0,89,0.00,,,0.00,Wunderground v.1.15,2013-03-06 21:41:00,
2013-03-06 16:43:00,29.4,26.6,30.10,North,355,7.0,17.0,89,0.00,,,0.00,Wunderground v.1.15,2013-03-06 21:43:00,
2013-03-06 16:45:00,29.4,26.6,30.10,ENE,72,11.0,21.0,89,0.00,,,0.00,Wunderground v.1.15,2013-03-06 21:45:00,
2013-03-06 16:46:00,29.4,26.3,30.10,NE,53,8.0,21.0,88,0.00,,,0.00,Wunderground v.1.15,2013-03-06 21:46:00,
2013-03-06 16:48:00,29.3,26.2,30.10,ENE,63,14.0,21.0,88,0.00,,,0.00,Wunderground v.1.15,2013-03-06 21:48:00,
2013-03-06 16:50:00,29.4,26.3,30.10,NE,49,2.0,7.0,88,0.00,,,0.00,Wunderground v.1.15,2013-03-06 21:50:00,
2013-03-06 16:51:00,29.4,26.3,30.10,ENE,75,4.0,7.0,88,0.00,,,0.00,Wunderground v.1.15,2013-03-06 21:51:00,
2013-03-06 16:53:00,29.3,26.2,30.11,North,355,8.0,18.0,88,0.00,,,0.00,Wunderground v.1.15,2013-03-06 21:53:00,
2013-03-06 16:55:00,29.3,26.2,30.11,NE,52,1.0,18.0,88,0.00,,,0.00,Wunderground v.1.15,2013-03-06 21:55:00,
2013-03-06 16:56:00,29.3,26.2,30.11,South,185,1.0,18.0,88,0.00,,,0.00,Wunderground v.1.15,2013-03-06 21:56:00,
2013-03-06 16:57:00,29.3,26.2,30.11,NNE,22,3.0,18.0,88,0.00,,,0.00,Wunderground v.1.15,2013-03-06 21:57:00,
2013-03-06 16:59:00,29.2,26.1,30.11,ENE,71,4.0,18.0,88,0.00,,,0.00,Wunderground v.1.15,2013-03-06 21:59:00,
2013-03-06 17:00:00,29.2,26.1,30.11,SW,235,3.0,6.0,88,0.00,,,0.00,Wunderground v.1.15,2013-03-06 22:00:00,
2013-03-06 17:01:00,29.2,26.1,30.11,NW,317,3.0,6.0,88,0.00,,,0.00,Wunderground v.1.15,2013-03-06 22:01:00,
2013-03-06 17:02:00,29.2,26.1,30.11,SE,144,4.0,6.0,88,0.00,,,0.00,Wunderground v.1.15,2013-03-06 22:02:00,
2013-03-06 17:04:00,29.1,26.0,30.11,NNE,24,4.0,8.0,88,0.00,,,0.00,Wunderground v.1.15,2013-03-06 22:04:00,
2013-03-06 17:05:00,29.1,26.0,30.11,ESE,119,6.0,8.0,88,0.00,,,0.00,Wunderground v.1.15,2013-03-06 22:05:00,
2013-03-06 17:06:00,29.1,26.0,30.11,ENE,60,3.0,8.0,88,0.00,,,0.00,Wunderground v.1.15,2013-03-06 22:06:00,
2013-03-06 17:07:00,29.1,26.0,30.12,WNW,283,7.0,12.0,88,0.00,,,0.00,Wunderground v.1.15,2013-03-06 22:07:00,
2013-03-06 17:09:00,29.0,26.2,30.12,NE,49,5.0,12.0,89,0.00,,,0.00,Wunderground v.1.15,2013-03-06 22:09:00,
2013-03-06 17:11:00,28.9,26.1,30.12,NE,46,4.0,4.0,89,0.00,,,0.00,Wunderground v.1.15,2013-03-06 22:11:00,
2013-03-06 17:12:00,28.9,26.3,30.12,WNW,296,5.0,8.0,90,0.00,,,0.00,Wunderground v.1.15,2013-03-06 22:12:00,
2013-03-06 17:14:00,28.8,26.2,30.12,ENE,62,3.0,13.0,90,0.00,,,0.00,Wunderground v.1.15,2013-03-06 22:14:00,
2013-03-06 17:16:00,28.7,26.4,30.12,WNW,286,1.0,13.0,91,0.00,,,0.00,Wunderground v.1.15,2013-03-06 22:16:00,
2013-03-06 17:17:00,28.6,26.3,30.12,North,355,0.0,13.0,91,0.00,,,0.00,Wunderground v.1.15,2013-03-06 22:17:00,
2013-03-06 17:19:00,28.5,26.2,30.12,NW,326,3.0,13.0,91,0.00,,,0.00,Wunderground v.1.15,2013-03-06 22:19:00,
2013-03-06 17:21:00,28.5,26.5,30.12,North,355,4.0,7.0,92,0.00,,,0.00,Wunderground v.1.15,2013-03-06 22:21:00,
2013-03-06 17:22:00,28.4,26.4,30.12,NNE,26,4.0,9.0,92,0.00,,,0.00,Wunderground v.1.15,2013-03-06 22:22:00,
2013-03-06 17:24:00,28.3,26.5,30.12,WSW,238,5.0,10.0,93,0.00,,,0.00,Wunderground v.1.15,2013-03-06 22:24:00,
2013-03-06 17:26:00,28.2,26.4,30.12,WSW,240,0.0,10.0,93,0.00,,,0.00,Wunderground v.1.15,2013-03-06 22:26:00,
2013-03-06 17:27:00,28.2,26.4,30.12,NNE,31,7.0,10.0,93,0.00,,,0.00,Wunderground v.1.15,2013-03-06 22:27:00,
2013-03-06 17:29:00,28.1,26.3,30.12,ENE,74,5.0,13.0,93,0.00,,,0.00,Wunderground v.1.15,2013-03-06 22:29:00,
2013-03-06 17:31:00,28.1,26.3,30.12,NNE,27,5.0,8.0,93,0.00,,,0.00,Wunderground v.1.15,2013-03-06 22:31:00,
2013-03-06 17:32:00,28.1,26.3,30.12,North,350,2.0,8.0,93,0.00,,,0.00,Wunderground v.1.15,2013-03-06 22:32:00,
2013-03-06 17:33:00,28.1,26.3,30.13,NNE,24,2.0,8.0,93,0.00,,,0.00,Wunderground v.1.15,2013-03-06 22:33:00,
2013-03-06 17:35:00,28.1,26.3,30.13,NNW,336,3.0,8.0,93,0.00,,,0.00,Wunderground v.1.15,2013-03-06 22:35:00,
2013-03-06 17:36:00,28.1,26.3,30.13,WNW,298,2.0,8.0,93,0.00,,,0.00,Wunderground v.1.15,2013-03-06 22:36:00,
2013-03-06 17:37:00,28.1,26.1,30.12,SW,227,0.0,8.0,92,0.00,,,0.00,Wunderground v.1.15,2013-03-06 22:37:00,
2013-03-06 17:39:00,28.1,26.1,30.12,ENE,65,11.0,11.0,92,0.00,,,0.00,Wunderground v.1.15,2013-03-06 22:39:00,
2013-03-06 17:40:00,28.1,26.1,30.12,East,91,8.0,8.0,92,0.00,,,0.00,Wunderground v.1.15,2013-03-06 22:40:00,
2013-03-06 17:41:00,28.1,25.8,30.12,ENE,62,8.0,16.0,91,0.00,,,0.00,Wunderground v.1.15,2013-03-06 22:41:00,
2013-03-06 17:42:00,28.1,25.8,30.12,East,87,4.0,16.0,91,0.00,,,0.00,Wunderground v.1.15,2013-03-06 22:42:00,
2013-03-06 17:44:00,28.1,25.8,30.12,WNW,285,5.0,17.0,91,0.00,,,0.00,Wunderground v.1.15,2013-03-06 22:44:00,
2013-03-06 17:45:00,28.1,25.8,30.12,NNW,342,4.0,17.0,91,0.00,,,0.00,Wunderground v.1.15,2013-03-06 22:45:00,
2013-03-06 17:46:00,28.1,25.8,30.12,NE,56,8.0,17.0,91,0.00,,,0.00,Wunderground v.1.15,2013-03-06 22:46:00,
2013-03-06 17:47:00,28.2,25.9,30.12,NE,37,11.0,17.0,91,0.00,,,0.00,Wunderground v.1.15,2013-03-06 22:47:00,
2013-03-06 17:50:00,28.1,25.8,30.13,North,360,2.0,17.0,91,0.00,,,0.00,Wunderground v.1.15,2013-03-06 22:50:00,
2013-03-06 17:51:00,28.1,25.8,30.12,East,92,6.0,10.0,91,0.00,,,0.00,Wunderground v.1.15,2013-03-06 22:51:00,
2013-03-06 17:53:00,28.1,25.8,30.13,East,86,8.0,11.0,91,0.00,,,0.00,Wunderground v.1.15,2013-03-06 22:53:00,
2013-03-06 17:55:00,28.1,25.8,30.13,NE,55,3.0,13.0,91,0.00,,,0.00,Wunderground v.1.15,2013-03-06 22:55:00,
2013-03-06 17:57:00,28.1,25.8,30.12,NE,37,2.0,13.0,91,0.00,,,0.00,Wunderground v.1.15,2013-03-06 22:57:00,
2013-03-06 18:00:00,28.1,25.8,30.13,NE,51,5.0,13.0,91,0.00,,,0.00,Wunderground v.1.15,2013-03-06 23:00:00,
2013-03-06 18:01:00,28.1,25.8,30.13,NNE,13,2.0,5.0,91,0.00,,,0.00,Wunderground v.1.15,2013-03-06 23:01:00,
2013-03-06 18:02:00,28.0,25.7,30.13,ENE,59,3.0,7.0,91,0.00,,,0.00,Wunderground v.1.15,2013-03-06 23:02:00,
2013-03-06 18:05:00,28.0,25.7,30.13,North,355,4.0,7.0,91,0.00,,,0.00,Wunderground v.1.15,2013-03-06 23:05:00,
2013-03-06 18:06:00,28.0,25.7,30.13,SW,228,1.0,7.0,91,0.00,,,0.00,Wunderground v.1.15,2013-03-06 23:06:00,
2013-03-06 18:07:00,28.0,25.7,30.13,NNW,327,3.0,7.0,91,0.00,,,0.00,Wunderground v.1.15,2013-03-06 23:07:00,
2013-03-06 18:10:00,28.0,25.4,30.13,ENE,57,6.0,8.0,90,0.00,,,0.00,Wunderground v.1.15,2013-03-06 23:10:00,
2013-03-06 18:11:00,28.0,25.4,30.13,South,169,4.0,11.0,90,0.00,,,0.00,Wunderground v.1.15,2013-03-06 23:11:00,
2013-03-06 18:12:00,28.0,25.4,30.13,ESE,116,4.0,11.0,90,0.00,,,0.00,Wunderground v.1.15,2013-03-06 23:12:00,
2013-03-06 18:15:00,27.9,25.3,30.13,ENE,64,2.0,13.0,90,0.00,,,0.00,Wunderground v.1.15,2013-03-06 23:15:00,
2013-03-06 18:16:00,27.9,25.3,30.13,North,360,1.0,13.0,90,0.00,,,0.00,Wunderground v.1.15,2013-03-06 23:16:00,
2013-03-06 18:18:00,27.9,25.3,30.14,East,84,12.0,14.0,90,0.00,,,0.00,Wunderground v.1.15,2013-03-06 23:18:00,
2013-03-06 18:21:00,27.8,25.2,30.14,North,11,0.0,8.0,90,0.00,,,0.00,Wunderground v.1.15,2013-03-06 23:21:00,
2013-03-06 18:23:00,27.8,25.5,30.14,WNW,290,4.0,8.0,91,0.00,,,0.00,Wunderground v.1.15,2013-03-06 23:23:00,
2013-03-06 18:26:00,27.7,25.4,30.14,East,85,2.0,11.0,91,0.00,,,0.00,Wunderground v.1.15,2013-03-06 23:26:00,
2013-03-06 18:28:00,27.7,25.4,30.14,North,10,0.0,11.0,91,0.00,,,0.00,Wunderground v.1.15,2013-03-06 23:28:00,
2013-03-06 18:31:00,27.6,25.1,30.14,SSW,193,1.0,6.0,90,0.00,,,0.00,Wunderground v.1.15,2013-03-06 23:31:00,
2013-03-06 18:32:00,27.6,25.1,30.14,North,11,2.0,8.0,90,0.00,,,0.00,Wunderground v.1.15,2013-03-06 23:32:00,
2013-03-06 18:33:00,27.7,25.4,30.14,ESE,104,2.0,8.0,91,0.00,,,0.00,Wunderground v.1.15,2013-03-06 23:33:00,
2013-03-06 18:36:00,27.6,25.3,30.14,NNW,335,4.0,12.0,91,0.00,,,0.00,Wunderground v.1.15,2013-03-06 23:36:00,
2013-03-06 18:38:00,27.6,25.3,30.15,East,101,9.0,12.0,91,0.00,,,0.00,Wunderground v.1.15,2013-03-06 23:38:00,
2013-03-06 18:41:00,27.6,25.1,30.15,NNE,24,9.0,9.0,90,0.00,,,0.00,Wunderground v.1.15,2013-03-06 23:41:00,
2013-03-06 18:43:00,27.6,25.1,30.15,ENE,59,1.0,13.0,90,0.00,,,0.00,Wunderground v.1.15,2013-03-06 23:43:00,
2013-03-06 18:44:00,27.6,25.1,30.15,NNE,26,5.0,13.0,90,0.00,,,0.00,Wunderground v.1.15,2013-03-06 23:44:00,
2013-03-06 18:46:00,27.7,25.2,30.15,WNW,300,2.0,13.0,90,0.00,,,0.00,Wunderground v.1.15,2013-03-06 23:46:00,
2013-03-06 18:48:00,27.6,25.1,30.15,NE,55,7.0,13.0,90,0.00,,,0.00,Wunderground v.1.15,2013-03-06 23:48:00,
2013-03-06 18:49:00,27.7,25.2,30.15,ENE,64,2.0,13.0,90,0.00,,,0.00,Wunderground v.1.15,2013-03-06 23:49:00,
2013-03-06 18:51:00,27.6,25.1,30.15,East,80,8.0,9.0,90,0.00,,,0.00,Wunderground v.1.15,2013-03-06 23:51:00,
2013-03-06 18:52:00,27.6,25.1,30.15,SW,227,6.0,9.0,90,0.00,,,0.00,Wunderground v.1.15,2013-03-06 23:52:00,
2013-03-06 18:53:00,27.6,25.1,30.15,NNE,31,7.0,9.0,90,0.00,,,0.00,Wunderground v.1.15,2013-03-06 23:53:00,
2013-03-06 18:54:00,27.6,25.1,30.15,ENE,77,2.0,9.0,90,0.00,,,0.00,Wunderground v.1.15,2013-03-06 23:54:00,
2013-03-06 18:57:00,27.6,25.1,30.15,North,5,7.0,14.0,90,0.00,,,0.00,Wunderground v.1.15,2013-03-06 23:57:00,
2013-03-06 18:58:00,27.6,24.8,30.15,North,9,1.0,14.0,89,0.00,,,0.00,Wunderground v.1.15,2013-03-06 23:58:00,
2013-03-06 19:00:00,27.6,24.8,30.15,NE,53,1.0,14.0,89,0.00,,,0.00,Wunderground v.1.15,2013-03-07 00:00:00,
2013-03-06 19:02:00,27.6,24.8,30.15,West,270,3.0,11.0,89,0.00,,,0.00,Wunderground v.1.15,2013-03-07 00:02:00,
2013-03-06 19:03:00,27.6,24.8,30.15,ESE,103,4.0,11.0,89,0.00,,,0.00,Wunderground v.1.15,2013-03-07 00:03:00,
2013-03-06 19:05:00,27.6,24.5,30.15,NNE,32,4.0,12.0,88,0.00,,,0.00,Wunderground v.1.15,2013-03-07 00:05:00,
2013-03-06 19:07:00,27.6,24.5,30.15,NNE,24,1.0,14.0,88,0.00,,,0.00,Wunderground v.1.15,2013-03-07 00:07:00,
2013-03-06 19:08:00,27.6,24.5,30.15,ENE,65,4.0,14.0,88,0.00,,,0.00,Wunderground v.1.15,2013-03-07 00:08:00,
2013-03-06 19:09:00,27.6,24.5,30.15,ESE,107,0.0,14.0,88,0.00,,,0.00,Wunderground v.1.15,2013-03-07 00:09:00,
2013-03-06 19:10:00,27.6,24.5,30.15,ENE,61,3.0,6.0,88,0.00,,,0.00,Wunderground v.1.15,2013-03-07 00:10:00,
2013-03-06 19:12:00,27.6,24.2,30.15,NNE,19,3.0,11.0,87,0.00,,,0.00,Wunderground v.1.15,2013-03-07 00:12:00,
2013-03-06 19:13:00,27.6,24.2,30.15,NNE,27,6.0,11.0,87,0.00,,,0.00,Wunderground v.1.15,2013-03-07 00:13:00,
2013-03-06 19:14:00,27.6,24.2,30.14,ENE,68,2.0,16.0,87,0.00,,,0.00,Wunderground v.1.15,2013-03-07 00:14:00,
2013-03-06 19:15:00,27.6,24.2,30.15,NNE,28,1.0,16.0,87,0.00,,,0.00,Wunderground v.1.15,2013-03-07 00:15:00,
2013-03-06 19:17:00,27.6,24.2,30.14,NNW,340,5.0,16.0,87,0.00,,,0.00,Wunderground v.1.15,2013-03-07 00:17:00,
2013-03-06 19:18:00,27.6,24.2,30.15,NE,50,0.0,16.0,87,0.00,,,0.00,Wunderground v.1.15,2013-03-07 00:18:00,
2013-03-06 19:19:00,27.6,24.2,30.14,North,355,1.0,16.0,87,0.00,,,0.00,Wunderground v.1.15,2013-03-07 00:19:00,
2013-03-06 19:21:00,27.6,24.2,30.14,NNE,22,4.0,12.0,87,0.00,,,0.00,Wunderground v.1.15,2013-03-07 00:21:00,
2013-03-06 19:23:00,27.6,24.0,30.14,NNE,24,6.0,13.0,86,0.00,,,0.00,Wunderground v.1.15,2013-03-07 00:23:00,
2013-03-06 19:25:00,27.6,24.0,30.14,ENE,74,13.0,14.0,86,0.00,,,0.00,Wunderground v.1.15,2013-03-07 00:25:00,
2013-03-06 19:26:00,27.6,24.0,30.14,NNW,333,6.0,14.0,86,0.00,,,0.00,Wunderground v.1.15,2013-03-07 00:26:00,
2013-03-06 19:28:00,27.6,23.7,30.14,North,5,7.0,14.0,85,0.00,,,0.00,Wunderground v.1.15,2013-03-07 00:28:00,
2013-03-06 19:30:00,27.5,23.6,30.14,NNW,338,2.0,6.0,85,0.00,,,0.00,Wunderground v.1.15,2013-03-07 00:30:00,
2013-03-06 19:32:00,27.5,23.6,30.13,NE,39,11.0,14.0,85,0.00,,,0.00,Wunderground v.1.15,2013-03-07 00:32:00,
2013-03-06 19:33:00,27.5,23.6,30.13,North,10,4.0,15.0,85,0.00,,,0.00,Wunderground v.1.15,2013-03-07 00:33:00,
2013-03-06 19:35:00,27.4,23.2,30.13,NE,53,10.0,17.0,84,0.00,,,0.00,Wunderground v.1.15,2013-03-07 00:35:00,
2013-03-06 19:37:00,27.4,23.2,30.13,East,91,5.0,17.0,84,0.00,,,0.00,Wunderground v.1.15,2013-03-07 00:37:00,
2013-03-06 19:38:00,27.4,23.2,30.13,NE,47,8.0,17.0,84,0.00,,,0.00,Wunderground v.1.15,2013-03-07 00:38:00,
2013-03-06 19:41:00,27.3,22.8,30.13,ENE,69,4.0,11.0,83,0.00,,,0.00,Wunderground v.1.15,2013-03-07 00:41:00,
2013-03-06 19:42:00,27.3,22.8,30.13,NNE,22,5.0,15.0,83,0.00,,,0.00,Wunderground v.1.15,2013-03-07 00:42:00,
2013-03-06 19:43:00,27.3,22.8,30.13,ENE,59,8.0,15.0,83,0.00,,,0.00,Wunderground v.1.15,2013-03-07 00:43:00,
2013-03-06 19:44:00,27.3,22.8,30.13,ENE,57,1.0,15.0,83,0.00,,,0.00,Wunderground v.1.15,2013-03-07 00:44:00,
2013-03-06 19:46:00,27.2,22.7,30.13,North,351,9.0,15.0,83,0.00,,,0.00,Wunderground v.1.15,2013-03-07 00:46:00,
2013-03-06 19:47:00,27.2,22.7,30.13,ENE,57,2.0,15.0,83,0.00,,,0.00,Wunderground v.1.15,2013-03-07 00:47:00,
2013-03-06 19:48:00,27.2,22.7,30.13,East,97,6.0,20.0,83,0.00,,,0.00,Wunderground v.1.15,2013-03-07 00:48:00,
2013-03-06 19:50:00,27.2,22.7,30.14,NW,320,0.0,7.0,83,0.00,,,0.00,Wunderground v.1.15,2013-03-07 00:50:00,
2013-03-06 19:52:00,27.1,22.6,30.14,North,355,4.0,10.0,83,0.00,,,0.00,Wunderground v.1.15,2013-03-07 00:52:00,
2013-03-06 19:53:00,27.1,22.6,30.14,WNW,297,2.0,10.0,83,0.00,,,0.00,Wunderground v.1.15,2013-03-07 00:53:00,
2013-03-06 19:55:00,27.1,22.6,30.14,NE,49,4.0,10.0,83,0.00,,,0.00,Wunderground v.1.15,2013-03-07 00:55:00,
2013-03-06 19:57:00,27.1,22.6,30.14,NE,48,6.0,16.0,83,0.00,,,0.00,Wunderground v.1.15,2013-03-07 00:57:00,
2013-03-06 19:58:00,27.1,22.6,30.14,North,355,2.0,16.0,83,0.00,,,0.00,Wunderground v.1.15,2013-03-07 00:58:00,
2013-03-06 20:00:00,27.1,22.6,30.14,SE,146,2.0,5.0,83,0.00,,,0.00,Wunderground v.1.15,2013-03-07 01:00:00,
2013-03-06 20:02:00,27.1,22.6,30.14,NE,54,6.0,11.0,83,0.00,,,0.00,Wunderground v.1.15,2013-03-07 01:02:00,
2013-03-06 20:03:00,27.1,22.6,30.14,NE,38,2.0,11.0,83,0.00,,,0.00,Wunderground v.1.15,2013-03-07 01:03:00,
2013-03-06 20:06:00,27.1,22.6,30.13,NE,40,9.0,17.0,83,0.00,,,0.00,Wunderground v.1.15,2013-03-07 01:06:00,
2013-03-06 20:08:00,27.1,22.6,30.13,NNE,19,8.0,17.0,83,0.00,,,0.00,Wunderground v.1.15,2013-03-07 01:08:00,
2013-03-06 20:11:00,27.1,22.3,30.13,NE,44,4.0,11.0,82,0.00,,,0.00,Wunderground v.1.15,2013-03-07 01:11:00,
2013-03-06 20:13:00,27.1,22.3,30.13,ESE,103,5.0,11.0,82,0.00,,,0.00,Wunderground v.1.15,2013-03-07 01:13:00,
2013-03-06 20:16:00,27.1,22.3,30.13,NNW,330,8.0,11.0,82,0.00,,,0.00,Wunderground v.1.15,2013-03-07 01:16:00,
2013-03-06 20:18:00,27.1,22.3,30.13,NNE,24,8.0,11.0,82,0.00,,,0.00,Wunderground v.1.15,2013-03-07 01:18:00,
2013-03-06 20:19:00,27.1,22.3,30.13,NNW,346,1.0,11.0,82,0.00,,,0.00,Wunderground v.1.15,2013-03-07 01:19:00,
2013-03-06 20:21:00,27.1,22.3,30.13,NE,50,4.0,6.0,82,0.00,,,0.00,Wunderground v.1.15,2013-03-07 01:21:00,
2013-03-06 20:23:00,27.1,22.3,30.13,NNE,19,0.0,13.0,82,0.00,,,0.00,Wunderground v.1.15,2013-03-07 01:23:00,
2013-03-06 20:24:00,27.0,22.2,30.13,NW,325,1.0,13.0,82,0.00,,,0.00,Wunderground v.1.15,2013-03-07 01:24:00,
2013-03-06 20:26:00,27.0,22.2,30.13,NNE,14,1.0,13.0,82,0.00,,,0.00,Wunderground v.1.15,2013-03-07 01:26:00,
2013-03-06 20:28:00,27.0,22.2,30.13,WNW,292,2.0,13.0,82,0.00,,,0.00,Wunderground v.1.15,2013-03-07 01:28:00,
2013-03-06 20:29:00,27.0,22.2,30.13,North,360,1.0,13.0,82,0.00,,,0.00,Wunderground v.1.15,2013-03-07 01:29:00,
2013-03-06 20:30:00,27.0,22.5,30.13,NE,40,8.0,8.0,83,0.00,,,0.00,Wunderground v.1.15,2013-03-07 01:30:00,
2013-03-06 20:31:00,27.0,22.5,30.14,NW,311,1.0,8.0,83,0.00,,,0.00,Wunderground v.1.15,2013-03-07 01:31:00,
2013-03-06 20:33:00,27.0,22.5,30.13,North,5,5.0,12.0,83,0.00,,,0.00,Wunderground v.1.15,2013-03-07 01:33:00,
2013-03-06 20:34:00,27.0,22.5,30.13,North,350,3.0,12.0,83,0.00,,,0.00,Wunderground v.1.15,2013-03-07 01:34:00,
2013-03-06 20:35:00,27.0,22.5,30.13,North,5,3.0,12.0,83,0.00,,,0.00,Wunderground v.1.15,2013-03-07 01:35:00,
2013-03-06 20:36:00,27.0,22.5,30.13,NNW,344,4.0,12.0,83,0.00,,,0.00,Wunderground v.1.15,2013-03-07 01:36:00,
2013-03-06 20:39:00,27.0,22.5,30.13,NE,44,5.0,13.0,83,0.00,,,0.00,Wunderground v.1.15,2013-03-07 01:39:00,
2013-03-06 20:40:00,27.0,22.5,30.13,NE,42,6.0,12.0,83,0.00,,,0.00,Wunderground v.1.15,2013-03-07 01:40:00,
2013-03-06 20:41:00,27.0,22.5,30.13,WSW,253,2.0,12.0,83,0.00,,,0.00,Wunderground v.1.15,2013-03-07 01:41:00,
2013-03-06 20:44:00,27.1,22.6,30.13,NNE,14,7.0,15.0,83,0.00,,,0.00,Wunderground v.1.15,2013-03-07 01:44:00,
2013-03-06 20:45:00,27.1,22.6,30.13,NE,38,7.0,15.0,83,0.00,,,0.00,Wunderground v.1.15,2013-03-07 01:45:00,
2013-03-06 20:46:00,27.1,22.6,30.13,NE,54,7.0,15.0,83,0.00,,,0.00,Wunderground v.1.15,2013-03-07 01:46:00,
2013-03-06 20:49:00,27.1,22.9,30.13,NNW,333,9.0,15.0,84,0.00,,,0.00,Wunderground v.1.15,2013-03-07 01:49:00,
2013-03-06 20:50:00,27.1,22.9,30.13,North,360,6.0,6.0,84,0.00,,,0.00,Wunderground v.1.15,2013-03-07 01:50:00,
2013-03-06 20:52:00,27.1,22.9,30.13,NNW,344,3.0,9.0,84,0.00,,,0.00,Wunderground v.1.15,2013-03-07 01:52:00,
2013-03-06 20:54:00,27.1,22.9,30.13,NNE,17,5.0,13.0,84,0.00,,,0.00,Wunderground v.1.15,2013-03-07 01:54:00,
2013-03-06 20:55:00,27.1,22.9,30.13,NNE,17,5.0,13.0,84,0.00,,,0.00,Wunderground v.1.15,2013-03-07 01:55:00,
2013-03-06 20:57:00,27.0,22.8,30.13,NNW,332,5.0,13.0,84,0.00,,,0.00,Wunderground v.1.15,2013-03-07 01:57:00,
2013-03-06 21:00:00,27.0,22.8,30.13,North,360,6.0,6.0,84,0.00,,,0.00,Wunderground v.1.15,2013-03-07 02:00:00,
2013-03-06 21:02:00,27.0,22.8,30.13,NNW,337,6.0,13.0,84,0.00,,,0.00,Wunderground v.1.15,2013-03-07 02:02:00,
2013-03-06 21:05:00,27.0,23.1,30.12,NNW,335,8.0,13.0,85,0.00,,,0.00,Wunderground v.1.15,2013-03-07 02:05:00,
2013-03-06 21:07:00,27.0,23.1,30.12,NNE,20,4.0,13.0,85,0.00,,,0.00,Wunderground v.1.15,2013-03-07 02:07:00,
2013-03-06 21:10:00,26.9,23.3,30.12,North,355,5.0,7.0,86,0.00,,,0.00,Wunderground v.1.15,2013-03-07 02:10:00,
2013-03-06 21:12:00,26.9,23.3,30.12,North,5,6.0,9.0,86,0.00,,,0.00,Wunderground v.1.15,2013-03-07 02:12:00,
2013-03-06 21:15:00,26.9,23.3,30.12,NNW,328,2.0,15.0,86,0.00,,,0.00,Wunderground v.1.15,2013-03-07 02:15:00,
2013-03-06 21:16:00,26.9,23.3,30.12,North,349,6.0,15.0,86,0.00,,,0.00,Wunderground v.1.15,2013-03-07 02:16:00,
2013-03-06 21:17:00,26.9,23.3,30.12,WSW,255,2.0,15.0,86,0.00,,,0.00,Wunderground v.1.15,2013-03-07 02:17:00,
2013-03-06 21:18:00,26.8,23.2,30.12,NNE,15,9.0,15.0,86,0.00,,,0.00,Wunderground v.1.15,2013-03-07 02:18:00,
2013-03-06 21:20:00,26.8,23.2,30.12,East,87,2.0,6.0,86,0.00,,,0.00,Wunderground v.1.15,2013-03-07 02:20:00,
2013-03-06 21:21:00,26.8,23.4,30.12,North,5,3.0,11.0,87,0.00,,,0.00,Wunderground v.1.15,2013-03-07 02:21:00,
2013-03-06 21:23:00,26.8,23.4,30.12,NE,42,8.0,12.0,87,0.00,,,0.00,Wunderground v.1.15,2013-03-07 02:23:00,
2013-03-06 21:25:00,26.8,23.4,30.12,North,10,5.0,12.0,87,0.00,,,0.00,Wunderground v.1.15,2013-03-07 02:25:00,
2013-03-06 21:26:00,26.8,23.4,30.12,NNW,338,4.0,12.0,87,0.00,,,0.00,Wunderground v.1.15,2013-03-07 02:26:00,
2013-03-06 21:28:00,26.7,23.4,30.12,NNE,28,1.0,12.0,87,0.00,,,0.00,Wunderground v.1.15,2013-03-07 02:28:00,
2013-03-06 21:31:00,26.7,23.4,30.11,ENE,69,12.0,13.0,87,0.00,,,0.00,Wunderground v.1.15,2013-03-07 02:31:00,
2013-03-06 21:32:00,26.7,23.4,30.12,NNE,33,9.0,14.0,87,0.00,,,0.00,Wunderground v.1.15,2013-03-07 02:32:00,
2013-03-06 21:33:00,26.7,23.4,30.12,NE,38,8.0,14.0,87,0.00,,,0.00,Wunderground v.1.15,2013-03-07 02:33:00,
2013-03-06 21:34:00,26.7,23.4,30.12,NNE,14,7.0,14.0,87,0.00,,,0.00,Wunderground v.1.15,2013-03-07 02:34:00,
2013-03-06 21:36:00,26.7,23.4,30.12,NNE,25,5.0,14.0,87,0.00,,,0.00,Wunderground v.1.15,2013-03-07 02:36:00,
2013-03-06 21:37:00,26.7,23.4,30.12,NNW,335,1.0,14.0,87,0.00,,,0.00,Wunderground v.1.15,2013-03-07 02:37:00,
2013-03-06 21:39:00,26.7,23.6,30.12,NE,36,7.0,14.0,88,0.00,,,0.00,Wunderground v.1.15,2013-03-07 02:39:00,
2013-03-06 21:42:00,26.7,23.4,30.12,North,355,2.0,13.0,87,0.00,,,0.00,Wunderground v.1.15,2013-03-07 02:42:00,
2013-03-06 21:44:00,26.7,23.6,30.12,ENE,64,10.0,13.0,88,0.00,,,0.00,Wunderground v.1.15,2013-03-07 02:44:00,
2013-03-06 21:47:00,26.7,23.4,30.12,NW,326,3.0,13.0,87,0.00,,,0.00,Wunderground v.1.15,2013-03-07 02:47:00,
2013-03-06 21:50:00,26.7,23.4,30.12,ENE,59,7.0,7.0,87,0.00,,,0.00,Wunderground v.1.15,2013-03-07 02:50:00,
2013-03-06 21:52:00,26.7,23.4,30.12,NNE,20,5.0,18.0,87,0.00,,,0.00,Wunderground v.1.15,2013-03-07 02:52:00,
2013-03-06 21:55:00,26.7,23.4,30.11,North,11,3.0,20.0,87,0.00,,,0.00,Wunderground v.1.15,2013-03-07 02:55:00,
2013-03-06 21:56:00,26.7,23.4,30.12,WNW,300,3.0,20.0,87,0.00,,,0.00,Wunderground v.1.15,2013-03-07 02:56:00,
2013-03-06 21:57:00,26.7,23.4,30.12,North,351,10.0,20.0,87,0.00,,,0.00,Wunderground v.1.15,2013-03-07 02:57:00,
2013-03-06 22:00:00,26.7,23.4,30.12,NW,307,7.0,8.0,87,0.00,,,0.00,Wunderground v.1.15,2013-03-07 03:00:00,
2013-03-06 22:01:00,26.7,23.4,30.12,NNW,333,2.0,8.0,87,0.00,,,0.00,Wunderground v.1.15,2013-03-07 03:01:00,
2013-03-06 22:02:00,26.7,23.4,30.12,ESE,110,4.0,8.0,87,0.00,,,0.00,Wunderground v.1.15,2013-03-07 03:02:00,
2013-03-06 22:05:00,26.7,23.1,30.12,ENE,57,11.0,15.0,86,0.00,,,0.00,Wunderground v.1.15,2013-03-07 03:05:00,
2013-03-06 22:06:00,26.7,23.1,30.12,NNE,12,6.0,15.0,86,0.00,,,0.00,Wunderground v.1.15,2013-03-07 03:06:00,
2013-03-06 22:08:00,26.8,23.2,30.12,NNE,18,6.0,15.0,86,0.00,,,0.00,Wunderground v.1.15,2013-03-07 03:08:00,
2013-03-06 22:10:00,26.8,23.2,30.12,WNW,296,3.0,8.0,86,0.00,,,0.00,Wunderground v.1.15,2013-03-07 03:10:00,
2013-03-06 22:11:00,26.8,23.2,30.11,NNE,14,5.0,8.0,86,0.00,,,0.00,Wunderground v.1.15,2013-03-07 03:11:00,
2013-03-06 22:13:00,26.8,23.2,30.11,North,10,3.0,14.0,86,0.00,,,0.00,Wunderground v.1.15,2013-03-07 03:13:00,
2013-03-06 22:16:00,26.7,23.1,30.12,NE,51,6.0,14.0,86,0.00,,,0.00,Wunderground v.1.15,2013-03-07 03:16:00,
2013-03-06 22:17:00,26.7,22.8,30.12,NNE,24,11.0,17.0,85,0.00,,,0.00,Wunderground v.1.15,2013-03-07 03:17:00,
2013-03-06 22:18:00,26.8,23.2,30.12,NNE,15,7.0,17.0,86,0.00,,,0.00,Wunderground v.1.15,2013-03-07 03:18:00,
2013-03-06 22:21:00,26.8,23.2,30.12,ENE,62,6.0,6.0,86,0.00,,,0.00,Wunderground v.1.15,2013-03-07 03:21:00,
2013-03-06 22:22:00,26.8,23.2,30.12,NNW,330,5.0,7.0,86,0.00,,,0.00,Wunderground v.1.15,2013-03-07 03:22:00,
2013-03-06 22:23:00,26.8,23.2,30.12,NNE,30,3.0,7.0,86,0.00,,,0.00,Wunderground v.1.15,2013-03-07 03:23:00,
2013-03-06 22:26:00,26.8,23.2,30.12,NNE,27,3.0,8.0,86,0.00,,,0.00,Wunderground v.1.15,2013-03-07 03:26:00,
2013-03-06 22:27:00,26.8,22.9,30.11,North,5,3.0,10.0,85,0.00,,,0.00,Wunderground v.1.15,2013-03-07 03:27:00,
2013-03-06 22:28:00,26.8,22.9,30.12,North,5,2.0,10.0,85,0.00,,,0.00,Wunderground v.1.15,2013-03-07 03:28:00,
2013-03-06 22:29:00,26.8,22.9,30.11,NNW,342,2.0,10.0,85,0.00,,,0.00,Wunderground v.1.15,2013-03-07 03:29:00,
2013-03-06 22:31:00,26.8,22.9,30.11,NNW,346,5.0,13.0,85,0.00,,,0.00,Wunderground v.1.15,2013-03-07 03:31:00,
2013-03-06 22:32:00,26.8,22.9,30.11,NNE,17,8.0,13.0,85,0.00,,,0.00,Wunderground v.1.15,2013-03-07 03:32:00,
2013-03-06 22:33:00,26.8,22.9,30.11,ENE,63,14.0,14.0,85,0.00,,,0.00,Wunderground v.1.15,2013-03-07 03:33:00,
2013-03-06 22:34:00,26.8,22.9,30.11,NNW,331,4.0,14.0,85,0.00,,,0.00,Wunderground v.1.15,2013-03-07 03:34:00,
2013-03-06 22:36:00,26.8,22.9,30.11,NE,40,6.0,14.0,85,0.00,,,0.00,Wunderground v.1.15,2013-03-07 03:36:00,
2013-03-06 22:38:00,26.8,22.9,30.11,NE,38,4.0,14.0,85,0.00,,,0.00,Wunderground v.1.15,2013-03-07 03:38:00,
2013-03-06 22:40:00,26.8,22.9,30.11,North,11,5.0,6.0,85,0.00,,,0.00,Wunderground v.1.15,2013-03-07 03:40:00,
2013-03-06 22:41:00,26.8,22.9,30.11,NE,53,11.0,11.0,85,0.00,,,0.00,Wunderground v.1.15,2013-03-07 03:41:00,
2013-03-06 22:43:00,26.8,23.2,30.11,NNE,27,6.0,11.0,86,0.00,,,0.00,Wunderground v.1.15,2013-03-07 03:43:00,
2013-03-06 22:44:00,26.8,23.2,30.11,NE,35,12.0,12.0,86,0.00,,,0.00,Wunderground v.1.15,2013-03-07 03:44:00,
2013-03-06 22:45:00,26.8,22.9,30.11,North,5,7.0,12.0,85,0.00,,,0.00,Wunderground v.1.15,2013-03-07 03:45:00,
2013-03-06 22:47:00,26.8,22.9,30.11,North,5,5.0,12.0,85,0.00,,,0.00,Wunderground v.1.15,2013-03-07 03:47:00,
2013-03-06 22:49:00,26.8,23.2,30.11,NW,323,2.0,12.0,86,0.00,,,0.00,Wunderground v.1.15,2013-03-07 03:49:00,
2013-03-06 22:50:00,26.8,23.2,30.11,NNW,344,5.0,5.0,86,0.00,,,0.00,Wunderground v.1.15,2013-03-07 03:50:00,
2013-03-06 22:52:00,26.7,23.1,30.11,ENE,77,12.0,13.0,86,0.00,,,0.00,Wunderground v.1.15,2013-03-07 03:52:00,
2013-03-06 22:54:00,26.7,23.1,30.11,NE,43,6.0,13.0,86,0.00,,,0.00,Wunderground v.1.15,2013-03-07 03:54:00,
2013-03-06 22:55:00,26.7,23.4,30.11,East,90,6.0,13.0,87,0.00,,,0.00,Wunderground v.1.15,2013-03-07 03:55:00,
2013-03-06 22:57:00,26.6,23.3,30.11,NW,311,6.0,13.0,87,0.00,,,0.00,Wunderground v.1.15,2013-03-07 03:57:00,
2013-03-06 22:59:00,26.6,23.3,30.11,NNE,30,6.0,13.0,87,0.00,,,0.00,Wunderground v.1.15,2013-03-07 03:59:00,
2013-03-06 23:01:00,26.6,23.3,30.11,NNW,336,3.0,6.0,87,0.00,,,0.00,Wunderground v.1.15,2013-03-07 04:01:00,
2013-03-06 23:04:00,26.6,23.3,30.11,ENE,59,5.0,13.0,87,0.00,,,0.00,Wunderground v.1.15,2013-03-07 04:04:00,
2013-03-06 23:05:00,26.6,23.3,30.11,NE,53,4.0,13.0,87,0.00,,,0.00,Wunderground v.1.15,2013-03-07 04:05:00,
2013-03-06 23:06:00,26.5,23.2,30.11,ENE,64,1.0,13.0,87,0.00,,,0.00,Wunderground v.1.15,2013-03-07 04:06:00,
2013-03-06 23:09:00,26.6,23.3,30.12,NE,40,6.0,13.0,87,0.00,,,0.00,Wunderground v.1.15,2013-03-07 04:09:00,
2013-03-06 23:10:00,26.5,23.2,30.12,NE,41,5.0,13.0,87,0.00,,,0.00,Wunderground v.1.15,2013-03-07 04:10:00,
2013-03-06 23:11:00,26.5,23.2,30.11,ENE,74,3.0,6.0,87,0.00,,,0.00,Wunderground v.1.15,2013-03-07 04:11:00,
2013-03-06 23:14:00,26.5,23.2,30.11,East,86,6.0,11.0,87,0.00,,,0.00,Wunderground v.1.15,2013-03-07 04:14:00,
2013-03-06 23:16:00,26.5,23.2,30.11,NNW,340,3.0,11.0,87,0.00,,,0.00,Wunderground v.1.15,2013-03-07 04:16:00,
2013-03-06 23:17:00,26.5,23.2,30.11,ENE,76,3.0,11.0,87,0.00,,,0.00,Wunderground v.1.15,2013-03-07 04:17:00,
2013-03-06 23:19:00,26.5,23.2,30.11,ENE,63,6.0,16.0,87,0.00,,,0.00,Wunderground v.1.15,2013-03-07 04:19:00,
2013-03-06 23:21:00,26.5,23.2,30.11,NNW,338,6.0,8.0,87,0.00,,,0.00,Wunderground v.1.15,2013-03-07 04:21:00,
2013-03-06 23:22:00,26.5,23.2,30.11,North,349,5.0,8.0,87,0.00,,,0.00,Wunderground v.1.15,2013-03-07 04:22:00,
2013-03-06 23:24:00,26.5,23.2,30.12,North,5,4.0,8.0,87,0.00,,,0.00,Wunderground v.1.15,2013-03-07 04:24:00,
2013-03-06 23:26:00,26.5,23.4,30.11,NE,54,7.0,8.0,88,0.00,,,0.00,Wunderground v.1.15,2013-03-07 04:26:00,
2013-03-06 23:27:00,26.5,23.4,30.11,NNE,18,8.0,10.0,88,0.00,,,0.00,Wunderground v.1.15,2013-03-07 04:27:00,
2013-03-06 23:29:00,26.5,23.4,30.11,North,11,7.0,10.0,88,0.00,,,0.00,Wunderground v.1.15,2013-03-07 04:29:00,
2013-03-06 23:32:00,26.5,23.4,30.12,NW,314,2.0,9.0,88,0.00,,,0.00,Wunderground v.1.15,2013-03-07 04:32:00,
2013-03-06 23:34:00,26.5,23.4,30.12,NNE,28,6.0,11.0,88,0.00,,,0.00,Wunderground v.1.15,2013-03-07 04:34:00,
2013-03-06 23:35:00,26.5,23.4,30.12,NE,35,3.0,11.0,88,0.00,,,0.00,Wunderground v.1.15,2013-03-07 04:35:00,
2013-03-06 23:37:00,26.5,23.4,30.11,NNE,20,3.0,11.0,88,0.00,,,0.00,Wunderground v.1.15,2013-03-07 04:37:00,
2013-03-06 23:40:00,26.4,23.3,30.11,NW,326,3.0,4.0,88,0.00,,,0.00,Wunderground v.1.15,2013-03-07 04:40:00,
2013-03-06 23:42:00,26.4,23.3,30.12,NNW,338,5.0,6.0,88,0.00,,,0.00,Wunderground v.1.15,2013-03-07 04:42:00,
2013-03-06 23:43:00,26.4,23.3,30.12,NE,49,6.0,10.0,88,0.00,,,0.00,Wunderground v.1.15,2013-03-07 04:43:00,
2013-03-06 23:45:00,26.4,23.3,30.12,NW,310,2.0,10.0,88,0.00,,,0.00,Wunderground v.1.15,2013-03-07 04:45:00,
2013-03-06 23:48:00,26.4,23.3,30.11,NE,38,3.0,10.0,88,0.00,,,0.00,Wunderground v.1.15,2013-03-07 04:48:00,
2013-03-06 23:50:00,26.4,23.1,30.11,NE,45,3.0,4.0,87,0.00,,,0.00,Wunderground v.1.15,2013-03-07 04:50:00,
2013-03-06 23:53:00,26.5,23.2,30.11,NNE,27,4.0,6.0,87,0.00,,,0.00,Wunderground v.1.15,2013-03-07 04:53:00,
2013-03-06 23:55:00,26.5,23.4,30.11,NNE,32,5.0,8.0,88,0.00,,,0.00,Wunderground v.1.15,2013-03-07 04:55:00,
2013-03-06 23:58:00,26.4,23.3,30.11,North,355,6.0,8.0,88,0.00,,,0.00,Wunderground v.1.15,2013-03-07 04:58:00,